BURBN10 PAEI-KMIB
Flight info
| Callsign | BURBN10 |
|---|---|
| Flight time | 7h 17m |
| Altitude | 39000 |
| Route | IG GKN JOH MDO B453 BOXER ALCOA BEBOP PYE238015 IR207 /D0045H LLC110019 R4813A NFL HZN/M085F410 LLC PUHGI Q138 PARZZ COKEE ISN MIB |
| Aircraft | B52/H-VGDW/C |
Departure
| Time | 2026-05-05 12:05 |
|---|---|
| Airport | Eielson Air Force Base (PAEI) |
Arrival
| Time | 2026-05-05 19:22 |
|---|---|
| Airport | Minot Air Force Base (KMIB) |
| Time | Latitude | Longitude | Altitude | Speed | Heading |
|---|---|---|---|---|---|
| 2026-05-05 11:55 | 64.67085 | -147.09890 | 561 ft | 0 kts | 99° |
| 2026-05-05 11:58 | 64.67084 | -147.09862 | 570 ft | 3 kts | 95° |
| 2026-05-05 11:58 | 64.67095 | -147.09836 | 569 ft | 3 kts | 56° |
| 2026-05-05 11:59 | 64.67115 | -147.09833 | 570 ft | 3 kts | 6° |
| 2026-05-05 11:59 | 64.67184 | -147.09876 | 569 ft | 15 kts | 342° |
| 2026-05-05 11:59 | 64.67297 | -147.09982 | 571 ft | 18 kts | 338° |
| 2026-05-05 11:59 | 64.67414 | -147.10096 | 568 ft | 19 kts | 338° |
| 2026-05-05 12:00 | 64.67541 | -147.10206 | 571 ft | 19 kts | 342° |
| 2026-05-05 12:00 | 64.67676 | -147.10304 | 571 ft | 21 kts | 341° |
| 2026-05-05 12:00 | 64.67799 | -147.10395 | 571 ft | 18 kts | 343° |
| 2026-05-05 12:00 | 64.67929 | -147.10495 | 571 ft | 20 kts | 341° |
| 2026-05-05 12:01 | 64.68059 | -147.10606 | 571 ft | 20 kts | 340° |
| 2026-05-05 12:01 | 64.68212 | -147.10745 | 571 ft | 24 kts | 339° |
| 2026-05-05 12:01 | 64.68354 | -147.10869 | 571 ft | 21 kts | 338° |
| 2026-05-05 12:01 | 64.68459 | -147.11036 | 569 ft | 14 kts | 306° |
| 2026-05-05 12:02 | 64.68466 | -147.11176 | 564 ft | 11 kts | 265° |
| 2026-05-05 12:02 | 64.68438 | -147.11369 | 561 ft | 6 kts | 248° |
| 2026-05-05 12:02 | 64.68415 | -147.11509 | 568 ft | 0 kts | 249° |
| 2026-05-05 12:03 | 64.68403 | -147.11577 | 562 ft | 12 kts | 249° |
| 2026-05-05 12:03 | 64.68373 | -147.11708 | 564 ft | 1 kts | 224° |
| 2026-05-05 12:03 | 64.68356 | -147.11718 | 561 ft | 3 kts | 198° |
| 2026-05-05 12:03 | 64.68327 | -147.11703 | 565 ft | 6 kts | 166° |
| 2026-05-05 12:04 | 64.68312 | -147.11692 | 567 ft | 5 kts | 163° |
| 2026-05-05 12:04 | 64.68298 | -147.11682 | 569 ft | 0 kts | 161° |
| 2026-05-05 12:04 | 64.68291 | -147.11675 | 564 ft | 9 kts | 160° |
| 2026-05-05 12:04 | 64.67993 | -147.11411 | 564 ft | 84 kts | 159° |
| 2026-05-05 12:05 | 64.67244 | -147.10746 | 564 ft | 141 kts | 159° |
| 2026-05-05 12:05 | 64.66217 | -147.09831 | 646 ft | 168 kts | 159° |
| 2026-05-05 12:05 | 64.65100 | -147.08870 | 1250 ft | 178 kts | 160° |
| 2026-05-05 12:05 | 64.63839 | -147.07704 | 1843 ft | 215 kts | 155° |
| 2026-05-05 12:06 | 64.62503 | -147.05662 | 2920 ft | 239 kts | 139° |
| 2026-05-05 12:06 | 64.61392 | -147.02818 | 4643 ft | 238 kts | 126° |
| 2026-05-05 12:06 | 64.60415 | -146.99599 | 6159 ft | 246 kts | 124° |
| 2026-05-05 12:06 | 64.59572 | -146.96124 | 7772 ft | 248 kts | 123° |
| 2026-05-05 12:07 | 64.58684 | -146.92554 | 9106 ft | 265 kts | 127° |
| 2026-05-05 12:07 | 64.57299 | -146.89035 | 9186 ft | 321 kts | 146° |
| 2026-05-05 12:07 | 64.55466 | -146.85695 | 10378 ft | 345 kts | 145° |
| 2026-05-05 12:07 | 64.53552 | -146.82200 | 11639 ft | 354 kts | 143° |
| 2026-05-05 12:08 | 64.51692 | -146.78288 | 12933 ft | 366 kts | 139° |
| 2026-05-05 12:08 | 64.49852 | -146.74250 | 14127 ft | 376 kts | 140° |
| 2026-05-05 12:08 | 64.47897 | -146.70081 | 15323 ft | 387 kts | 140° |
| 2026-05-05 12:08 | 64.45873 | -146.65821 | 16553 ft | 399 kts | 140° |
| 2026-05-05 12:09 | 64.43797 | -146.61425 | 17804 ft | 410 kts | 140° |
| 2026-05-05 12:09 | 64.41670 | -146.56916 | 18936 ft | 416 kts | 140° |
| 2026-05-05 12:09 | 64.39524 | -146.52392 | 20059 ft | 421 kts | 141° |
| 2026-05-05 12:09 | 64.37346 | -146.47816 | 21082 ft | 427 kts | 141° |
| 2026-05-05 12:10 | 64.35118 | -146.43143 | 22042 ft | 435 kts | 141° |
| 2026-05-05 12:10 | 64.32864 | -146.38420 | 22852 ft | 442 kts | 141° |
| 2026-05-05 12:10 | 64.30556 | -146.33599 | 23465 ft | 452 kts | 141° |
| 2026-05-05 12:10 | 64.28206 | -146.28703 | 23980 ft | 462 kts | 141° |
| 2026-05-05 12:11 | 64.25798 | -146.23694 | 24576 ft | 468 kts | 141° |
| 2026-05-05 12:11 | 64.23407 | -146.18726 | 25500 ft | 447 kts | 141° |
| 2026-05-05 12:11 | 64.21209 | -146.14163 | 27652 ft | 399 kts | 142° |
| 2026-05-05 12:11 | 64.19253 | -146.10122 | 30012 ft | 364 kts | 143° |
| 2026-05-05 12:12 | 64.17397 | -146.06336 | 31180 ft | 348 kts | 144° |
| 2026-05-05 12:12 | 64.15631 | -146.02719 | 32291 ft | 338 kts | 144° |
| 2026-05-05 12:12 | 64.13928 | -145.99204 | 33406 ft | 329 kts | 144° |
| 2026-05-05 12:12 | 64.12200 | -145.95661 | 34008 ft | 333 kts | 144° |
| 2026-05-05 12:13 | 64.10425 | -145.92047 | 34110 ft | 351 kts | 143° |
| 2026-05-05 12:13 | 64.08587 | -145.88278 | 34697 ft | 355 kts | 143° |
| 2026-05-05 12:13 | 64.06733 | -145.84481 | 35377 ft | 361 kts | 143° |
| 2026-05-05 12:13 | 64.04839 | -145.80643 | 35638 ft | 378 kts | 143° |
| 2026-05-05 12:14 | 64.02808 | -145.76637 | 35907 ft | 394 kts | 146° |
| 2026-05-05 12:14 | 64.00470 | -145.73319 | 36187 ft | 403 kts | 164° |
| 2026-05-05 12:14 | 63.97735 | -145.71665 | 36810 ft | 407 kts | 171° |
| 2026-05-05 12:14 | 63.94905 | -145.70791 | 37547 ft | 413 kts | 178° |
| 2026-05-05 12:15 | 63.91997 | -145.70422 | 37926 ft | 426 kts | 178° |
| 2026-05-05 12:15 | 63.88999 | -145.69979 | 38261 ft | 436 kts | 177° |
| 2026-05-05 12:15 | 63.85940 | -145.69474 | 38518 ft | 446 kts | 178° |
| 2026-05-05 12:15 | 63.82801 | -145.68994 | 38680 ft | 458 kts | 178° |
| 2026-05-05 12:16 | 63.76446 | -145.68024 | 38654 ft | 458 kts | 178° |
| 2026-05-05 12:16 | 63.70099 | -145.67057 | 38644 ft | 457 kts | 178° |
| 2026-05-05 12:17 | 63.63769 | -145.66095 | 38637 ft | 455 kts | 178° |
| 2026-05-05 12:17 | 63.57478 | -145.65145 | 38659 ft | 453 kts | 178° |
| 2026-05-05 12:18 | 63.51199 | -145.64201 | 38662 ft | 451 kts | 178° |
| 2026-05-05 12:18 | 63.44959 | -145.63268 | 38688 ft | 449 kts | 178° |
| 2026-05-05 12:19 | 63.38715 | -145.62336 | 38709 ft | 450 kts | 178° |
| 2026-05-05 12:19 | 63.32448 | -145.61405 | 38710 ft | 451 kts | 178° |
| 2026-05-05 12:20 | 63.26190 | -145.60480 | 38734 ft | 451 kts | 178° |
| 2026-05-05 12:20 | 63.19919 | -145.59556 | 38743 ft | 452 kts | 177° |
| 2026-05-05 12:21 | 63.13643 | -145.58636 | 38744 ft | 453 kts | 177° |
| 2026-05-05 12:21 | 63.07342 | -145.57717 | 38747 ft | 453 kts | 177° |
| 2026-05-05 12:22 | 63.01043 | -145.56802 | 38740 ft | 454 kts | 177° |
| 2026-05-05 12:22 | 62.94787 | -145.55897 | 38745 ft | 454 kts | 177° |
| 2026-05-05 12:23 | 62.88474 | -145.54988 | 38746 ft | 455 kts | 177° |
| 2026-05-05 12:23 | 62.82149 | -145.54080 | 38734 ft | 455 kts | 177° |
| 2026-05-05 12:24 | 62.75829 | -145.53178 | 38742 ft | 455 kts | 177° |
| 2026-05-05 12:24 | 62.69505 | -145.52279 | 38736 ft | 455 kts | 177° |
| 2026-05-05 12:25 | 62.63173 | -145.51382 | 38736 ft | 456 kts | 177° |
| 2026-05-05 12:25 | 62.56855 | -145.50491 | 38735 ft | 456 kts | 177° |
| 2026-05-05 12:26 | 62.50528 | -145.49603 | 38735 ft | 455 kts | 177° |
| 2026-05-05 12:26 | 62.44403 | -145.48747 | 38730 ft | 455 kts | 177° |
| 2026-05-05 12:27 | 62.38064 | -145.47864 | 38729 ft | 455 kts | 177° |
| 2026-05-05 12:27 | 62.32016 | -145.47026 | 38714 ft | 455 kts | 177° |
| 2026-05-05 12:28 | 62.26106 | -145.46210 | 38703 ft | 454 kts | 177° |
| 2026-05-05 12:28 | 62.20610 | -145.45454 | 38702 ft | 454 kts | 177° |
| 2026-05-05 12:29 | 62.15109 | -145.45900 | 38693 ft | 453 kts | 190° |
| 2026-05-05 12:29 | 62.09121 | -145.49241 | 38718 ft | 453 kts | 199° |
| 2026-05-05 12:30 | 62.03078 | -145.53656 | 38710 ft | 452 kts | 198° |
| 2026-05-05 12:30 | 61.97172 | -145.57918 | 38718 ft | 452 kts | 198° |
| 2026-05-05 12:31 | 61.91216 | -145.62191 | 38725 ft | 452 kts | 198° |
| 2026-05-05 12:31 | 61.85302 | -145.66422 | 38743 ft | 452 kts | 198° |
| 2026-05-05 12:32 | 61.79530 | -145.70532 | 38743 ft | 452 kts | 198° |
| 2026-05-05 12:32 | 61.73684 | -145.74679 | 38753 ft | 452 kts | 198° |
| 2026-05-05 12:33 | 61.67737 | -145.78881 | 38737 ft | 452 kts | 198° |
| 2026-05-05 12:33 | 61.61840 | -145.83030 | 38754 ft | 453 kts | 198° |
| 2026-05-05 12:34 | 61.55903 | -145.87191 | 38754 ft | 453 kts | 198° |
| 2026-05-05 12:34 | 61.49879 | -145.91394 | 38733 ft | 453 kts | 198° |
| 2026-05-05 12:35 | 61.43893 | -145.95556 | 38765 ft | 453 kts | 198° |
| 2026-05-05 12:35 | 61.37945 | -145.99674 | 38799 ft | 453 kts | 198° |
| 2026-05-05 12:36 | 61.31958 | -146.03803 | 38830 ft | 453 kts | 198° |
| 2026-05-05 12:36 | 61.25953 | -146.07927 | 38841 ft | 453 kts | 198° |
| 2026-05-05 12:37 | 61.20974 | -146.11333 | 38883 ft | 453 kts | 198° |
| 2026-05-05 12:37 | 61.14943 | -146.15445 | 38879 ft | 453 kts | 198° |
| 2026-05-05 12:38 | 61.08949 | -146.19514 | 38880 ft | 454 kts | 197° |
| 2026-05-05 12:38 | 61.02947 | -146.23574 | 38876 ft | 454 kts | 198° |
| 2026-05-05 12:39 | 60.96969 | -146.27601 | 38860 ft | 454 kts | 198° |
| 2026-05-05 12:39 | 60.90964 | -146.31629 | 38840 ft | 454 kts | 198° |
| 2026-05-05 12:40 | 60.84973 | -146.35632 | 38823 ft | 454 kts | 197° |
| 2026-05-05 12:40 | 60.78952 | -146.39641 | 38783 ft | 455 kts | 197° |
| 2026-05-05 12:41 | 60.72942 | -146.43626 | 38790 ft | 454 kts | 197° |
| 2026-05-05 12:41 | 60.66891 | -146.47621 | 38779 ft | 455 kts | 197° |
| 2026-05-05 12:42 | 60.60886 | -146.51571 | 38780 ft | 455 kts | 197° |
| 2026-05-05 12:42 | 60.54869 | -146.55514 | 38774 ft | 454 kts | 197° |
| 2026-05-05 12:43 | 60.48745 | -146.58728 | 38741 ft | 455 kts | 186° |
| 2026-05-05 12:43 | 60.42446 | -146.58620 | 38760 ft | 455 kts | 174° |
| 2026-05-05 12:44 | 60.36164 | -146.57043 | 38775 ft | 455 kts | 175° |
| 2026-05-05 12:44 | 60.29881 | -146.55531 | 38758 ft | 455 kts | 174° |
| 2026-05-05 12:45 | 60.23589 | -146.54023 | 38760 ft | 455 kts | 175° |
| 2026-05-05 12:45 | 60.17313 | -146.52521 | 38755 ft | 455 kts | 175° |
| 2026-05-05 12:46 | 60.11024 | -146.51024 | 38748 ft | 455 kts | 175° |
| 2026-05-05 12:46 | 60.04805 | -146.49549 | 38752 ft | 455 kts | 175° |
| 2026-05-05 12:47 | 59.98523 | -146.48065 | 38749 ft | 455 kts | 175° |
| 2026-05-05 12:47 | 59.92220 | -146.46581 | 38745 ft | 455 kts | 175° |
| 2026-05-05 12:48 | 59.85942 | -146.45109 | 38746 ft | 455 kts | 175° |
| 2026-05-05 12:48 | 59.79651 | -146.43640 | 38745 ft | 455 kts | 175° |
| 2026-05-05 12:49 | 59.73359 | -146.42175 | 38747 ft | 455 kts | 175° |
| 2026-05-05 12:49 | 59.67076 | -146.40719 | 38749 ft | 455 kts | 175° |
| 2026-05-05 12:50 | 59.60831 | -146.39276 | 38754 ft | 455 kts | 175° |
| 2026-05-05 12:50 | 59.54565 | -146.37835 | 38758 ft | 454 kts | 175° |
| 2026-05-05 12:51 | 59.48276 | -146.36394 | 38757 ft | 454 kts | 175° |
| 2026-05-05 12:51 | 59.42190 | -146.33064 | 38585 ft | 469 kts | 146° |
| 2026-05-05 12:52 | 59.39731 | -146.28895 | 38729 ft | 470 kts | 139° |
| 2026-05-05 12:52 | 59.37584 | -146.24010 | 38751 ft | 474 kts | 133° |
| 2026-05-05 12:52 | 59.33420 | -146.14023 | 38761 ft | 473 kts | 134° |
| 2026-05-05 12:53 | 59.29237 | -146.04052 | 38743 ft | 473 kts | 134° |
| 2026-05-05 12:53 | 59.25056 | -145.94150 | 38730 ft | 474 kts | 134° |
| 2026-05-05 12:54 | 59.18739 | -145.79258 | 38722 ft | 474 kts | 134° |
| 2026-05-05 12:55 | 59.14529 | -145.69387 | 38723 ft | 474 kts | 135° |
| 2026-05-05 12:55 | 59.10309 | -145.59534 | 38730 ft | 474 kts | 135° |
| 2026-05-05 12:56 | 59.06297 | -145.50204 | 38734 ft | 474 kts | 135° |
| 2026-05-05 12:56 | 59.02046 | -145.40359 | 38735 ft | 474 kts | 135° |
| 2026-05-05 12:57 | 58.97810 | -145.30591 | 38739 ft | 474 kts | 135° |
| 2026-05-05 12:57 | 58.93549 | -145.20807 | 38741 ft | 474 kts | 135° |
| 2026-05-05 12:58 | 58.89283 | -145.11050 | 38741 ft | 474 kts | 136° |
| 2026-05-05 12:58 | 58.85043 | -145.01395 | 38744 ft | 474 kts | 136° |
| 2026-05-05 12:59 | 58.80751 | -144.91664 | 38747 ft | 474 kts | 136° |
| 2026-05-05 12:59 | 58.76485 | -144.82028 | 38757 ft | 475 kts | 136° |
| 2026-05-05 13:00 | 58.70021 | -144.67507 | 38755 ft | 475 kts | 136° |
| 2026-05-05 13:01 | 58.61399 | -144.48276 | 38760 ft | 475 kts | 136° |
| 2026-05-05 13:01 | 58.57111 | -144.38771 | 38765 ft | 475 kts | 137° |
| 2026-05-05 13:02 | 58.52759 | -144.29165 | 38768 ft | 475 kts | 137° |
| 2026-05-05 13:02 | 58.48388 | -144.19555 | 38773 ft | 476 kts | 137° |
| 2026-05-05 13:03 | 58.44034 | -144.10020 | 38773 ft | 476 kts | 137° |
| 2026-05-05 13:03 | 58.39668 | -144.00503 | 38780 ft | 476 kts | 137° |
| 2026-05-05 13:04 | 58.35291 | -143.90996 | 38783 ft | 477 kts | 137° |
| 2026-05-05 13:04 | 58.30907 | -143.81516 | 38791 ft | 477 kts | 137° |
| 2026-05-05 13:05 | 58.26528 | -143.72083 | 38792 ft | 478 kts | 137° |
| 2026-05-05 13:05 | 58.22138 | -143.62665 | 38795 ft | 478 kts | 137° |
| 2026-05-05 13:06 | 58.17944 | -143.53704 | 38796 ft | 478 kts | 138° |
| 2026-05-05 13:06 | 58.13594 | -143.44447 | 38803 ft | 479 kts | 138° |
| 2026-05-05 13:07 | 58.09178 | -143.35085 | 38802 ft | 479 kts | 138° |
| 2026-05-05 13:07 | 58.04747 | -143.25728 | 38812 ft | 479 kts | 138° |
| 2026-05-05 13:08 | 58.00319 | -143.16419 | 38808 ft | 480 kts | 138° |
| 2026-05-05 13:08 | 57.95855 | -143.07068 | 38816 ft | 480 kts | 138° |
| 2026-05-05 13:09 | 57.91415 | -142.97806 | 38821 ft | 480 kts | 139° |
| 2026-05-05 13:09 | 57.86941 | -142.88511 | 38827 ft | 481 kts | 139° |
| 2026-05-05 13:10 | 57.82388 | -142.79090 | 38829 ft | 481 kts | 139° |
| 2026-05-05 13:10 | 57.77916 | -142.69872 | 38835 ft | 481 kts | 139° |
| 2026-05-05 13:11 | 57.73417 | -142.60635 | 38838 ft | 481 kts | 139° |
| 2026-05-05 13:11 | 57.68905 | -142.51410 | 38841 ft | 482 kts | 139° |
| 2026-05-05 13:12 | 57.64389 | -142.42213 | 38846 ft | 482 kts | 139° |
| 2026-05-05 13:12 | 57.59851 | -142.33007 | 38849 ft | 482 kts | 139° |
| 2026-05-05 13:13 | 57.55306 | -142.23823 | 38851 ft | 483 kts | 140° |
| 2026-05-05 13:13 | 57.50758 | -142.14670 | 38863 ft | 483 kts | 140° |
| 2026-05-05 13:14 | 57.46170 | -142.05474 | 38866 ft | 484 kts | 140° |
| 2026-05-05 13:14 | 57.41600 | -141.96350 | 38870 ft | 484 kts | 140° |
| 2026-05-05 13:15 | 57.36997 | -141.87194 | 38874 ft | 484 kts | 140° |
| 2026-05-05 13:15 | 57.32388 | -141.78065 | 38877 ft | 485 kts | 140° |
| 2026-05-05 13:16 | 57.27789 | -141.68989 | 38883 ft | 485 kts | 140° |
| 2026-05-05 13:16 | 57.23182 | -141.59934 | 38885 ft | 486 kts | 140° |
| 2026-05-05 13:17 | 57.18533 | -141.50834 | 38887 ft | 484 kts | 141° |
| 2026-05-05 13:17 | 57.13904 | -141.41807 | 38891 ft | 482 kts | 141° |
| 2026-05-05 13:18 | 57.09334 | -141.32929 | 38897 ft | 480 kts | 141° |
| 2026-05-05 13:18 | 57.04754 | -141.24066 | 38901 ft | 478 kts | 141° |
| 2026-05-05 13:19 | 57.00171 | -141.15232 | 38909 ft | 477 kts | 141° |
| 2026-05-05 13:19 | 56.95596 | -141.06446 | 38917 ft | 475 kts | 141° |
| 2026-05-05 13:20 | 56.91037 | -140.97722 | 38916 ft | 474 kts | 141° |
| 2026-05-05 13:20 | 56.86483 | -140.89043 | 38920 ft | 471 kts | 141° |
| 2026-05-05 13:21 | 56.81950 | -140.80437 | 38920 ft | 470 kts | 142° |
| 2026-05-05 13:21 | 56.77420 | -140.71866 | 38928 ft | 468 kts | 142° |
| 2026-05-05 13:22 | 56.72907 | -140.63361 | 38943 ft | 466 kts | 142° |
| 2026-05-05 13:22 | 56.68399 | -140.54895 | 38941 ft | 465 kts | 142° |
| 2026-05-05 13:23 | 56.63895 | -140.46468 | 38942 ft | 464 kts | 142° |
| 2026-05-05 13:23 | 56.59403 | -140.38094 | 38947 ft | 463 kts | 142° |
| 2026-05-05 13:24 | 56.54892 | -140.29715 | 38949 ft | 463 kts | 142° |
| 2026-05-05 13:24 | 56.50429 | -140.21455 | 38950 ft | 462 kts | 142° |
| 2026-05-05 13:25 | 56.45925 | -140.13149 | 38955 ft | 462 kts | 143° |
| 2026-05-05 13:25 | 56.41434 | -140.04898 | 38961 ft | 461 kts | 143° |
| 2026-05-05 13:26 | 56.36926 | -139.96644 | 38966 ft | 461 kts | 143° |
| 2026-05-05 13:26 | 56.32423 | -139.88427 | 38961 ft | 461 kts | 143° |
| 2026-05-05 13:27 | 56.28680 | -139.81621 | 38963 ft | 460 kts | 143° |
| 2026-05-05 13:27 | 56.24163 | -139.73434 | 38976 ft | 460 kts | 143° |
| 2026-05-05 13:28 | 56.19643 | -139.65271 | 38977 ft | 460 kts | 144° |
| 2026-05-05 13:28 | 56.15129 | -139.57146 | 38980 ft | 460 kts | 144° |
| 2026-05-05 13:29 | 56.10592 | -139.49010 | 38983 ft | 460 kts | 144° |
| 2026-05-05 13:29 | 56.06063 | -139.40917 | 38989 ft | 460 kts | 144° |
| 2026-05-05 13:30 | 56.01531 | -139.32847 | 38988 ft | 460 kts | 144° |
| 2026-05-05 13:30 | 55.96991 | -139.24790 | 38996 ft | 460 kts | 144° |
| 2026-05-05 13:31 | 55.92442 | -139.16746 | 38996 ft | 460 kts | 144° |
| 2026-05-05 13:31 | 55.87884 | -139.08713 | 38998 ft | 461 kts | 145° |
| 2026-05-05 13:32 | 55.83325 | -139.00708 | 39000 ft | 461 kts | 145° |
| 2026-05-05 13:32 | 55.78759 | -138.92716 | 39006 ft | 460 kts | 145° |
| 2026-05-05 13:33 | 55.74201 | -138.84770 | 39007 ft | 459 kts | 145° |
| 2026-05-05 13:33 | 55.69675 | -138.76904 | 39009 ft | 457 kts | 145° |
| 2026-05-05 13:34 | 55.65126 | -138.69025 | 39013 ft | 456 kts | 145° |
| 2026-05-05 13:34 | 55.60595 | -138.61205 | 39019 ft | 455 kts | 146° |
| 2026-05-05 13:35 | 55.56057 | -138.53398 | 39020 ft | 454 kts | 146° |
| 2026-05-05 13:35 | 55.51524 | -138.45628 | 39024 ft | 453 kts | 146° |
| 2026-05-05 13:36 | 55.47110 | -138.38087 | 39022 ft | 453 kts | 146° |
| 2026-05-05 13:36 | 55.42579 | -138.30371 | 39029 ft | 452 kts | 146° |
| 2026-05-05 13:37 | 55.38060 | -138.22701 | 39031 ft | 452 kts | 146° |
| 2026-05-05 13:37 | 55.33640 | -138.15224 | 39042 ft | 452 kts | 146° |
| 2026-05-05 13:38 | 55.29175 | -138.07696 | 39042 ft | 451 kts | 146° |
| 2026-05-05 13:38 | 55.24626 | -138.00052 | 39040 ft | 451 kts | 146° |
| 2026-05-05 13:39 | 55.20086 | -137.92448 | 39038 ft | 451 kts | 146° |
| 2026-05-05 13:39 | 55.15576 | -137.84920 | 39038 ft | 451 kts | 146° |
| 2026-05-05 13:40 | 55.11080 | -137.77438 | 39044 ft | 450 kts | 146° |
| 2026-05-05 13:40 | 55.06524 | -137.69882 | 39049 ft | 450 kts | 146° |
| 2026-05-05 13:41 | 55.02001 | -137.62406 | 39048 ft | 451 kts | 146° |
| 2026-05-05 13:41 | 54.97442 | -137.54895 | 39049 ft | 451 kts | 146° |
| 2026-05-05 13:42 | 54.92877 | -137.47399 | 39060 ft | 451 kts | 146° |
| 2026-05-05 13:42 | 54.88315 | -137.39931 | 39059 ft | 451 kts | 147° |
| 2026-05-05 13:43 | 54.83749 | -137.32482 | 39059 ft | 451 kts | 147° |
| 2026-05-05 13:43 | 54.79168 | -137.25034 | 39058 ft | 451 kts | 147° |
| 2026-05-05 13:44 | 54.74572 | -137.17584 | 39062 ft | 452 kts | 147° |
| 2026-05-05 13:44 | 54.69984 | -137.10172 | 39065 ft | 452 kts | 147° |
| 2026-05-05 13:45 | 54.65397 | -137.02786 | 39064 ft | 452 kts | 147° |
| 2026-05-05 13:45 | 54.60780 | -136.95375 | 39070 ft | 452 kts | 147° |
| 2026-05-05 13:46 | 54.56163 | -136.87988 | 39072 ft | 453 kts | 147° |
| 2026-05-05 13:46 | 54.51558 | -136.80644 | 39070 ft | 453 kts | 147° |
| 2026-05-05 13:47 | 54.46937 | -136.73298 | 39072 ft | 453 kts | 147° |
| 2026-05-05 13:47 | 54.42279 | -136.65917 | 39075 ft | 454 kts | 147° |
| 2026-05-05 13:48 | 54.37611 | -136.58545 | 39076 ft | 454 kts | 147° |
| 2026-05-05 13:48 | 54.32955 | -136.51216 | 39075 ft | 455 kts | 147° |
| 2026-05-05 13:49 | 54.28296 | -136.43904 | 39076 ft | 455 kts | 147° |
| 2026-05-05 13:49 | 54.23638 | -136.36619 | 39075 ft | 456 kts | 147° |
| 2026-05-05 13:50 | 54.18956 | -136.29319 | 39078 ft | 456 kts | 147° |
| 2026-05-05 13:50 | 54.14258 | -136.22017 | 39083 ft | 456 kts | 147° |
| 2026-05-05 13:51 | 54.09567 | -136.14750 | 39082 ft | 457 kts | 147° |
| 2026-05-05 13:51 | 54.04868 | -136.07494 | 39093 ft | 457 kts | 147° |
| 2026-05-05 13:52 | 54.00127 | -136.00316 | 39087 ft | 456 kts | 148° |
| 2026-05-05 13:52 | 53.95053 | -135.94065 | 39093 ft | 449 kts | 154° |
| 2026-05-05 13:53 | 53.89987 | -135.87968 | 39087 ft | 450 kts | 154° |
| 2026-05-05 13:53 | 53.84828 | -135.81818 | 39087 ft | 450 kts | 154° |
| 2026-05-05 13:54 | 53.79751 | -135.75765 | 39089 ft | 450 kts | 154° |
| 2026-05-05 13:54 | 53.74617 | -135.69669 | 39091 ft | 451 kts | 154° |
| 2026-05-05 13:55 | 53.69467 | -135.63570 | 39091 ft | 451 kts | 154° |
| 2026-05-05 13:55 | 53.64311 | -135.57484 | 39089 ft | 452 kts | 153° |
| 2026-05-05 13:56 | 53.59185 | -135.51450 | 39093 ft | 452 kts | 154° |
| 2026-05-05 13:56 | 53.54032 | -135.45404 | 39091 ft | 452 kts | 153° |
| 2026-05-05 13:57 | 53.48901 | -135.39402 | 39094 ft | 453 kts | 153° |
| 2026-05-05 13:57 | 53.43738 | -135.33380 | 39097 ft | 453 kts | 153° |
| 2026-05-05 13:58 | 53.38553 | -135.27351 | 39097 ft | 454 kts | 153° |
| 2026-05-05 13:58 | 53.33353 | -135.21323 | 39097 ft | 454 kts | 153° |
| 2026-05-05 13:59 | 53.27415 | -135.14460 | 39093 ft | 455 kts | 153° |
| 2026-05-05 14:00 | 53.22772 | -135.09112 | 39107 ft | 455 kts | 153° |
| 2026-05-05 14:00 | 53.18559 | -135.04270 | 39096 ft | 455 kts | 153° |
| 2026-05-05 14:01 | 53.14422 | -134.99528 | 39100 ft | 456 kts | 153° |
| 2026-05-05 14:01 | 53.09734 | -134.94167 | 39098 ft | 456 kts | 153° |
| 2026-05-05 14:02 | 53.04782 | -134.88522 | 39101 ft | 456 kts | 153° |
| 2026-05-05 14:02 | 52.99577 | -134.82604 | 39104 ft | 456 kts | 153° |
| 2026-05-05 14:03 | 52.94299 | -134.76623 | 39099 ft | 456 kts | 153° |
| 2026-05-05 14:03 | 52.89561 | -134.71270 | 39096 ft | 457 kts | 153° |
| 2026-05-05 14:04 | 52.85136 | -134.66284 | 39092 ft | 457 kts | 153° |
| 2026-05-05 14:04 | 52.80766 | -134.61372 | 39099 ft | 457 kts | 153° |
| 2026-05-05 14:05 | 52.75621 | -134.55603 | 39100 ft | 457 kts | 153° |
| 2026-05-05 14:05 | 52.71080 | -134.50528 | 39096 ft | 458 kts | 153° |
| 2026-05-05 14:06 | 52.66310 | -134.45208 | 39096 ft | 458 kts | 153° |
| 2026-05-05 14:06 | 52.60989 | -134.39292 | 39096 ft | 458 kts | 153° |
| 2026-05-05 14:07 | 52.55699 | -134.33426 | 39096 ft | 458 kts | 153° |
| 2026-05-05 14:07 | 52.50399 | -134.27569 | 39101 ft | 459 kts | 153° |
| 2026-05-05 14:08 | 52.45137 | -134.21769 | 39095 ft | 459 kts | 153° |
| 2026-05-05 14:08 | 52.39826 | -134.15934 | 39092 ft | 459 kts | 153° |
| 2026-05-05 14:09 | 52.34519 | -134.10119 | 39092 ft | 459 kts | 153° |
| 2026-05-05 14:09 | 52.29221 | -134.04331 | 39096 ft | 460 kts | 153° |
| 2026-05-05 14:10 | 52.23989 | -133.98633 | 39095 ft | 460 kts | 153° |
| 2026-05-05 14:10 | 52.18636 | -133.92818 | 39092 ft | 461 kts | 153° |
| 2026-05-05 14:11 | 52.13295 | -133.87034 | 39088 ft | 461 kts | 152° |
| 2026-05-05 14:11 | 52.07979 | -133.81295 | 39091 ft | 461 kts | 152° |
| 2026-05-05 14:12 | 52.02611 | -133.75517 | 39090 ft | 462 kts | 152° |
| 2026-05-05 14:12 | 51.97270 | -133.69782 | 39089 ft | 462 kts | 152° |
| 2026-05-05 14:13 | 51.91922 | -133.64055 | 39088 ft | 462 kts | 152° |
| 2026-05-05 14:13 | 51.86539 | -133.58309 | 39088 ft | 463 kts | 152° |
| 2026-05-05 14:14 | 51.81136 | -133.52558 | 39083 ft | 463 kts | 152° |
| 2026-05-05 14:14 | 51.75768 | -133.46861 | 39081 ft | 464 kts | 152° |
| 2026-05-05 14:15 | 51.71233 | -133.42061 | 39086 ft | 464 kts | 152° |
| 2026-05-05 14:15 | 51.65891 | -133.36421 | 39084 ft | 465 kts | 152° |
| 2026-05-05 14:16 | 51.60437 | -133.30679 | 39085 ft | 465 kts | 152° |
| 2026-05-05 14:16 | 51.55054 | -133.25029 | 39083 ft | 465 kts | 152° |
| 2026-05-05 14:17 | 51.49565 | -133.19284 | 39078 ft | 466 kts | 152° |
| 2026-05-05 14:17 | 51.44177 | -133.13662 | 39081 ft | 466 kts | 152° |
| 2026-05-05 14:18 | 51.38763 | -133.08028 | 39079 ft | 466 kts | 152° |
| 2026-05-05 14:18 | 51.33370 | -133.02432 | 39080 ft | 467 kts | 152° |
| 2026-05-05 14:19 | 51.27853 | -132.96724 | 39080 ft | 467 kts | 152° |
| 2026-05-05 14:19 | 51.22451 | -132.91151 | 39077 ft | 467 kts | 152° |
| 2026-05-05 14:20 | 51.16934 | -132.85476 | 39078 ft | 467 kts | 152° |
| 2026-05-05 14:20 | 51.11496 | -132.79898 | 39078 ft | 468 kts | 152° |
| 2026-05-05 14:21 | 51.06050 | -132.74327 | 39082 ft | 468 kts | 152° |
| 2026-05-05 14:21 | 51.00596 | -132.68758 | 39077 ft | 468 kts | 152° |
| 2026-05-05 14:22 | 50.95121 | -132.63211 | 39072 ft | 468 kts | 152° |
| 2026-05-05 14:22 | 50.89772 | -132.57795 | 39077 ft | 469 kts | 152° |
| 2026-05-05 14:23 | 50.84278 | -132.52250 | 39067 ft | 469 kts | 152° |
| 2026-05-05 14:23 | 50.79160 | -132.47100 | 39073 ft | 469 kts | 152° |
| 2026-05-05 14:24 | 50.73621 | -132.41541 | 39067 ft | 470 kts | 152° |
| 2026-05-05 14:24 | 50.68107 | -132.36022 | 39077 ft | 470 kts | 152° |
| 2026-05-05 14:25 | 50.62577 | -132.30503 | 39067 ft | 470 kts | 152° |
| 2026-05-05 14:25 | 50.57053 | -132.25006 | 39074 ft | 470 kts | 152° |
| 2026-05-05 14:26 | 50.51516 | -132.19511 | 39054 ft | 471 kts | 152° |
| 2026-05-05 14:26 | 50.45971 | -132.14024 | 39070 ft | 471 kts | 152° |
| 2026-05-05 14:27 | 50.40421 | -132.08547 | 39070 ft | 471 kts | 152° |
| 2026-05-05 14:27 | 50.34862 | -132.03077 | 39069 ft | 471 kts | 152° |
| 2026-05-05 14:28 | 50.29308 | -131.97626 | 39065 ft | 472 kts | 152° |
| 2026-05-05 14:28 | 50.23745 | -131.92183 | 39068 ft | 472 kts | 152° |
| 2026-05-05 14:29 | 50.18151 | -131.86804 | 39062 ft | 470 kts | 155° |
| 2026-05-05 14:29 | 50.12513 | -131.81759 | 39066 ft | 471 kts | 153° |
| 2026-05-05 14:30 | 50.06829 | -131.76654 | 39064 ft | 471 kts | 154° |
| 2026-05-05 14:30 | 50.01161 | -131.71534 | 39063 ft | 471 kts | 154° |
| 2026-05-05 14:31 | 49.95461 | -131.66526 | 39062 ft | 471 kts | 154° |
| 2026-05-05 14:31 | 49.89762 | -131.61487 | 39058 ft | 471 kts | 154° |
| 2026-05-05 14:32 | 49.84059 | -131.56471 | 39058 ft | 472 kts | 154° |
| 2026-05-05 14:32 | 49.78345 | -131.51457 | 39061 ft | 472 kts | 154° |
| 2026-05-05 14:33 | 49.72634 | -131.46459 | 39057 ft | 472 kts | 154° |
| 2026-05-05 14:33 | 49.66913 | -131.41466 | 39059 ft | 472 kts | 154° |
| 2026-05-05 14:34 | 49.61187 | -131.36482 | 39058 ft | 472 kts | 154° |
| 2026-05-05 14:34 | 49.55466 | -131.31517 | 39060 ft | 473 kts | 154° |
| 2026-05-05 14:35 | 49.49763 | -131.26581 | 39056 ft | 473 kts | 154° |
| 2026-05-05 14:35 | 49.44025 | -131.21626 | 39055 ft | 473 kts | 154° |
| 2026-05-05 14:36 | 49.38288 | -131.16687 | 39056 ft | 473 kts | 154° |
| 2026-05-05 14:36 | 49.32538 | -131.11749 | 39054 ft | 474 kts | 154° |
| 2026-05-05 14:37 | 49.26783 | -131.06821 | 39052 ft | 474 kts | 154° |
| 2026-05-05 14:37 | 49.21022 | -131.01902 | 39053 ft | 474 kts | 154° |
| 2026-05-05 14:38 | 49.15261 | -130.96994 | 39052 ft | 474 kts | 154° |
| 2026-05-05 14:38 | 49.09485 | -130.92088 | 39050 ft | 475 kts | 154° |
| 2026-05-05 14:39 | 49.03713 | -130.87198 | 39046 ft | 475 kts | 154° |
| 2026-05-05 14:39 | 48.97935 | -130.82316 | 39048 ft | 475 kts | 154° |
| 2026-05-05 14:40 | 48.92153 | -130.77446 | 39047 ft | 475 kts | 154° |
| 2026-05-05 14:40 | 48.86358 | -130.72577 | 39051 ft | 476 kts | 154° |
| 2026-05-05 14:41 | 48.80573 | -130.67729 | 39046 ft | 476 kts | 154° |
| 2026-05-05 14:41 | 48.74766 | -130.62878 | 39046 ft | 476 kts | 154° |
| 2026-05-05 14:42 | 48.68967 | -130.58044 | 39044 ft | 476 kts | 154° |
| 2026-05-05 14:42 | 48.63195 | -130.53246 | 39047 ft | 476 kts | 154° |
| 2026-05-05 14:43 | 48.57381 | -130.48426 | 39042 ft | 477 kts | 154° |
| 2026-05-05 14:43 | 48.51561 | -130.43614 | 39040 ft | 477 kts | 154° |
| 2026-05-05 14:44 | 48.45738 | -130.38812 | 39042 ft | 477 kts | 154° |
| 2026-05-05 14:44 | 48.39911 | -130.34019 | 39041 ft | 478 kts | 154° |
| 2026-05-05 14:45 | 48.34076 | -130.29233 | 39034 ft | 478 kts | 154° |
| 2026-05-05 14:45 | 48.28233 | -130.24452 | 39039 ft | 478 kts | 154° |
| 2026-05-05 14:46 | 48.22392 | -130.19685 | 39038 ft | 478 kts | 154° |
| 2026-05-05 14:46 | 48.16539 | -130.14924 | 39033 ft | 479 kts | 154° |
| 2026-05-05 14:47 | 48.10681 | -130.10170 | 39035 ft | 479 kts | 154° |
| 2026-05-05 14:47 | 48.04826 | -130.05431 | 39028 ft | 479 kts | 153° |
| 2026-05-05 14:48 | 47.98956 | -130.00692 | 39029 ft | 479 kts | 153° |
| 2026-05-05 14:48 | 47.93087 | -129.95967 | 39030 ft | 479 kts | 153° |
| 2026-05-05 14:49 | 47.87250 | -129.91279 | 39032 ft | 480 kts | 153° |
| 2026-05-05 14:49 | 47.81344 | -129.86549 | 39028 ft | 480 kts | 153° |
| 2026-05-05 14:50 | 47.75502 | -129.81881 | 39026 ft | 480 kts | 153° |
| 2026-05-05 14:50 | 47.69575 | -129.77167 | 39029 ft | 480 kts | 153° |
| 2026-05-05 14:51 | 47.63689 | -129.72463 | 39030 ft | 480 kts | 153° |
| 2026-05-05 14:51 | 47.57798 | -129.67780 | 39030 ft | 481 kts | 153° |
| 2026-05-05 14:52 | 47.51945 | -129.63136 | 39026 ft | 481 kts | 153° |
| 2026-05-05 14:52 | 47.46041 | -129.58464 | 39025 ft | 481 kts | 153° |
| 2026-05-05 14:53 | 47.40139 | -129.53806 | 39024 ft | 481 kts | 153° |
| 2026-05-05 14:53 | 47.34235 | -129.49158 | 39024 ft | 481 kts | 153° |
| 2026-05-05 14:54 | 47.28322 | -129.44515 | 39021 ft | 482 kts | 153° |
| 2026-05-05 14:54 | 47.22405 | -129.39880 | 39022 ft | 482 kts | 153° |
| 2026-05-05 14:55 | 47.16485 | -129.35255 | 39021 ft | 482 kts | 153° |
| 2026-05-05 14:55 | 47.10556 | -129.30634 | 39020 ft | 482 kts | 153° |
| 2026-05-05 14:56 | 47.04633 | -129.26031 | 39020 ft | 482 kts | 153° |
| 2026-05-05 14:56 | 46.98700 | -129.21431 | 39019 ft | 482 kts | 153° |
| 2026-05-05 14:57 | 46.92765 | -129.16840 | 39024 ft | 482 kts | 153° |
| 2026-05-05 14:57 | 46.86831 | -129.12263 | 39017 ft | 483 kts | 153° |
| 2026-05-05 14:58 | 46.80881 | -129.07685 | 39019 ft | 483 kts | 153° |
| 2026-05-05 14:58 | 46.74941 | -129.03125 | 39017 ft | 483 kts | 153° |
| 2026-05-05 14:59 | 46.68992 | -128.98570 | 39020 ft | 483 kts | 153° |
| 2026-05-05 14:59 | 46.63034 | -128.94020 | 39019 ft | 483 kts | 153° |
| 2026-05-05 15:00 | 46.58082 | -128.90247 | 39018 ft | 484 kts | 152° |
| 2026-05-05 15:00 | 46.51113 | -128.84950 | 39019 ft | 484 kts | 152° |
| 2026-05-05 15:01 | 46.45145 | -128.80426 | 39016 ft | 484 kts | 152° |
| 2026-05-05 15:01 | 46.39174 | -128.75912 | 39021 ft | 484 kts | 152° |
| 2026-05-05 15:02 | 46.33193 | -128.71400 | 39020 ft | 484 kts | 152° |
| 2026-05-05 15:02 | 46.27213 | -128.66901 | 39025 ft | 485 kts | 152° |
| 2026-05-05 15:03 | 46.21260 | -128.62432 | 39021 ft | 485 kts | 152° |
| 2026-05-05 15:03 | 46.15265 | -128.57945 | 39024 ft | 485 kts | 152° |
| 2026-05-05 15:04 | 46.09274 | -128.53470 | 39018 ft | 485 kts | 152° |
| 2026-05-05 15:04 | 46.03305 | -128.49024 | 39022 ft | 486 kts | 152° |
| 2026-05-05 15:05 | 45.94291 | -128.42329 | 39019 ft | 486 kts | 152° |
| 2026-05-05 15:06 | 45.89294 | -128.38628 | 39021 ft | 486 kts | 152° |
| 2026-05-05 15:06 | 45.83281 | -128.34185 | 39019 ft | 486 kts | 152° |
| 2026-05-05 15:07 | 45.77259 | -128.29746 | 39018 ft | 486 kts | 152° |
| 2026-05-05 15:07 | 45.71234 | -128.25316 | 39023 ft | 487 kts | 152° |
| 2026-05-05 15:08 | 45.65207 | -128.20895 | 39024 ft | 487 kts | 152° |
| 2026-05-05 15:08 | 45.59178 | -128.16484 | 39024 ft | 487 kts | 152° |
| 2026-05-05 15:09 | 45.53136 | -128.12072 | 39024 ft | 487 kts | 152° |
| 2026-05-05 15:09 | 45.47100 | -128.07678 | 39027 ft | 487 kts | 152° |
| 2026-05-05 15:10 | 45.41055 | -128.03287 | 39025 ft | 488 kts | 152° |
| 2026-05-05 15:10 | 45.35017 | -127.98910 | 39023 ft | 488 kts | 152° |
| 2026-05-05 15:11 | 45.28965 | -127.94536 | 39025 ft | 488 kts | 152° |
| 2026-05-05 15:11 | 45.22949 | -127.90197 | 39023 ft | 488 kts | 152° |
| 2026-05-05 15:12 | 45.16894 | -127.85840 | 39026 ft | 488 kts | 151° |
| 2026-05-05 15:12 | 45.10837 | -127.81493 | 39028 ft | 488 kts | 151° |
| 2026-05-05 15:13 | 45.04774 | -127.77152 | 39028 ft | 488 kts | 151° |
| 2026-05-05 15:13 | 44.98707 | -127.72818 | 39030 ft | 488 kts | 151° |
| 2026-05-05 15:14 | 44.92645 | -127.68498 | 39025 ft | 489 kts | 151° |
| 2026-05-05 15:14 | 44.86575 | -127.64183 | 39031 ft | 489 kts | 151° |
| 2026-05-05 15:15 | 44.80500 | -127.59874 | 39030 ft | 489 kts | 151° |
| 2026-05-05 15:15 | 44.74415 | -127.55569 | 39027 ft | 489 kts | 151° |
| 2026-05-05 15:16 | 44.68337 | -127.51279 | 39030 ft | 489 kts | 151° |
| 2026-05-05 15:16 | 44.62252 | -127.46994 | 39032 ft | 489 kts | 151° |
| 2026-05-05 15:17 | 44.56165 | -127.42717 | 39031 ft | 489 kts | 151° |
| 2026-05-05 15:17 | 44.50081 | -127.38453 | 39030 ft | 489 kts | 151° |
| 2026-05-05 15:18 | 44.43994 | -127.34197 | 39033 ft | 489 kts | 151° |
| 2026-05-05 15:18 | 44.37905 | -127.29949 | 39032 ft | 489 kts | 150° |
| 2026-05-05 15:19 | 44.31814 | -127.25709 | 39032 ft | 489 kts | 150° |
| 2026-05-05 15:19 | 44.25718 | -127.21476 | 39035 ft | 489 kts | 150° |
| 2026-05-05 15:20 | 44.19623 | -127.17254 | 39036 ft | 489 kts | 150° |
| 2026-05-05 15:20 | 44.13529 | -127.13043 | 39044 ft | 489 kts | 150° |
| 2026-05-05 15:21 | 44.07469 | -127.08863 | 39034 ft | 489 kts | 150° |
| 2026-05-05 15:21 | 44.01326 | -127.04638 | 39038 ft | 489 kts | 150° |
| 2026-05-05 15:22 | 43.95270 | -127.00481 | 39042 ft | 489 kts | 150° |
| 2026-05-05 15:22 | 43.89166 | -126.96301 | 39044 ft | 489 kts | 150° |
| 2026-05-05 15:23 | 43.83058 | -126.92128 | 39045 ft | 489 kts | 150° |
| 2026-05-05 15:23 | 43.76945 | -126.87961 | 39044 ft | 489 kts | 150° |
| 2026-05-05 15:24 | 43.70838 | -126.83808 | 39047 ft | 489 kts | 150° |
| 2026-05-05 15:24 | 43.64728 | -126.79661 | 39047 ft | 490 kts | 150° |
| 2026-05-05 15:25 | 43.58611 | -126.75521 | 39047 ft | 490 kts | 150° |
| 2026-05-05 15:25 | 43.52491 | -126.71387 | 39050 ft | 490 kts | 150° |
| 2026-05-05 15:26 | 43.46378 | -126.67254 | 39052 ft | 490 kts | 149° |
| 2026-05-05 15:26 | 43.40242 | -126.63164 | 39051 ft | 490 kts | 150° |
| 2026-05-05 15:27 | 43.34111 | -126.59073 | 39050 ft | 490 kts | 150° |
| 2026-05-05 15:27 | 43.27974 | -126.54997 | 39052 ft | 490 kts | 150° |
| 2026-05-05 15:28 | 43.21836 | -126.50927 | 39053 ft | 490 kts | 150° |
| 2026-05-05 15:28 | 43.15694 | -126.46864 | 39059 ft | 490 kts | 150° |
| 2026-05-05 15:29 | 43.09554 | -126.42811 | 39061 ft | 490 kts | 150° |
| 2026-05-05 15:29 | 43.03401 | -126.38758 | 39060 ft | 490 kts | 150° |
| 2026-05-05 15:30 | 42.97255 | -126.34720 | 39057 ft | 490 kts | 150° |
| 2026-05-05 15:30 | 42.91103 | -126.30686 | 39062 ft | 491 kts | 149° |
| 2026-05-05 15:31 | 42.84949 | -126.26659 | 39065 ft | 491 kts | 149° |
| 2026-05-05 15:31 | 42.78836 | -126.22669 | 39063 ft | 491 kts | 149° |
| 2026-05-05 15:32 | 42.72559 | -126.18979 | 39056 ft | 497 kts | 160° |
| 2026-05-05 15:32 | 42.65688 | -126.17520 | 39054 ft | 505 kts | 173° |
| 2026-05-05 15:33 | 42.58660 | -126.17005 | 39061 ft | 505 kts | 172° |
| 2026-05-05 15:33 | 42.51649 | -126.16482 | 39064 ft | 505 kts | 173° |
| 2026-05-05 15:34 | 42.44630 | -126.15948 | 39063 ft | 505 kts | 173° |
| 2026-05-05 15:34 | 42.37604 | -126.15420 | 39068 ft | 505 kts | 173° |
| 2026-05-05 15:35 | 42.30578 | -126.14891 | 39071 ft | 506 kts | 172° |
| 2026-05-05 15:35 | 42.23549 | -126.14364 | 39068 ft | 506 kts | 172° |
| 2026-05-05 15:36 | 42.16520 | -126.13837 | 39068 ft | 506 kts | 172° |
| 2026-05-05 15:36 | 42.09493 | -126.13312 | 39069 ft | 506 kts | 172° |
| 2026-05-05 15:37 | 42.02457 | -126.12788 | 39074 ft | 506 kts | 172° |
| 2026-05-05 15:37 | 41.95426 | -126.12264 | 39073 ft | 506 kts | 172° |
| 2026-05-05 15:38 | 41.88443 | -126.11746 | 39073 ft | 506 kts | 172° |
| 2026-05-05 15:38 | 41.81401 | -126.11224 | 39075 ft | 506 kts | 172° |
| 2026-05-05 15:39 | 41.74364 | -126.10704 | 39073 ft | 507 kts | 172° |
| 2026-05-05 15:39 | 41.67325 | -126.10185 | 39076 ft | 507 kts | 172° |
| 2026-05-05 15:40 | 41.60282 | -126.09667 | 39074 ft | 507 kts | 172° |
| 2026-05-05 15:40 | 41.53249 | -126.09150 | 39075 ft | 507 kts | 172° |
| 2026-05-05 15:41 | 41.46203 | -126.08634 | 39077 ft | 507 kts | 172° |
| 2026-05-05 15:41 | 41.39166 | -126.08120 | 39071 ft | 507 kts | 172° |
| 2026-05-05 15:42 | 41.32123 | -126.07606 | 39082 ft | 506 kts | 172° |
| 2026-05-05 15:42 | 41.25093 | -126.07094 | 39082 ft | 506 kts | 172° |
| 2026-05-05 15:43 | 41.18050 | -126.06583 | 39068 ft | 506 kts | 172° |
| 2026-05-05 15:43 | 41.11011 | -126.06072 | 39072 ft | 506 kts | 172° |
| 2026-05-05 15:44 | 41.03978 | -126.05564 | 39077 ft | 506 kts | 172° |
| 2026-05-05 15:44 | 40.96954 | -126.05057 | 39075 ft | 506 kts | 172° |
| 2026-05-05 15:45 | 40.89923 | -126.04550 | 39084 ft | 506 kts | 172° |
| 2026-05-05 15:45 | 40.82909 | -126.04046 | 39078 ft | 505 kts | 172° |
| 2026-05-05 15:46 | 40.75884 | -126.03543 | 39082 ft | 505 kts | 172° |
| 2026-05-05 15:46 | 40.68911 | -126.03043 | 39085 ft | 505 kts | 171° |
| 2026-05-05 15:47 | 40.61844 | -126.02539 | 39082 ft | 505 kts | 171° |
| 2026-05-05 15:47 | 40.54881 | -126.02043 | 39087 ft | 505 kts | 171° |
| 2026-05-05 15:48 | 40.47856 | -126.01543 | 39085 ft | 505 kts | 171° |
| 2026-05-05 15:48 | 40.40838 | -126.01045 | 39085 ft | 505 kts | 171° |
| 2026-05-05 15:49 | 40.33832 | -126.00549 | 39083 ft | 505 kts | 171° |
| 2026-05-05 15:49 | 40.26822 | -126.00054 | 39081 ft | 504 kts | 171° |
| 2026-05-05 15:50 | 40.19813 | -125.99559 | 39085 ft | 504 kts | 171° |
| 2026-05-05 15:50 | 40.12808 | -125.99066 | 39089 ft | 504 kts | 171° |
| 2026-05-05 15:51 | 40.05798 | -125.98574 | 39087 ft | 504 kts | 171° |
| 2026-05-05 15:51 | 39.98799 | -125.98083 | 39087 ft | 504 kts | 171° |
| 2026-05-05 15:52 | 39.91797 | -125.97594 | 39086 ft | 504 kts | 171° |
| 2026-05-05 15:52 | 39.84798 | -125.97105 | 39089 ft | 504 kts | 171° |
| 2026-05-05 15:53 | 39.77794 | -125.96617 | 39084 ft | 503 kts | 171° |
| 2026-05-05 15:53 | 39.71983 | -125.96213 | 39086 ft | 503 kts | 171° |
| 2026-05-05 15:54 | 39.64986 | -125.95728 | 39087 ft | 503 kts | 171° |
| 2026-05-05 15:54 | 39.57997 | -125.95244 | 39089 ft | 503 kts | 171° |
| 2026-05-05 15:55 | 39.51013 | -125.94761 | 39089 ft | 503 kts | 171° |
| 2026-05-05 15:55 | 39.44023 | -125.94279 | 39084 ft | 503 kts | 171° |
| 2026-05-05 15:56 | 39.37039 | -125.93798 | 39090 ft | 502 kts | 171° |
| 2026-05-05 15:56 | 39.30062 | -125.93319 | 39083 ft | 502 kts | 171° |
| 2026-05-05 15:57 | 39.23079 | -125.92840 | 39088 ft | 502 kts | 170° |
| 2026-05-05 15:57 | 39.16106 | -125.92363 | 39090 ft | 502 kts | 170° |
| 2026-05-05 15:58 | 39.09123 | -125.91886 | 39078 ft | 502 kts | 170° |
| 2026-05-05 15:58 | 39.02162 | -125.91411 | 39085 ft | 502 kts | 170° |
| 2026-05-05 15:59 | 38.95188 | -125.90937 | 39092 ft | 502 kts | 170° |
| 2026-05-05 15:59 | 38.88220 | -125.90464 | 39089 ft | 502 kts | 170° |
| 2026-05-05 16:00 | 38.81248 | -125.89992 | 39089 ft | 502 kts | 170° |
| 2026-05-05 16:00 | 38.74320 | -125.89523 | 39089 ft | 502 kts | 171° |
| 2026-05-05 16:01 | 38.67346 | -125.89052 | 39094 ft | 502 kts | 171° |
| 2026-05-05 16:01 | 38.60369 | -125.88581 | 39083 ft | 502 kts | 171° |
| 2026-05-05 16:02 | 38.53411 | -125.88114 | 39090 ft | 502 kts | 171° |
| 2026-05-05 16:02 | 38.46435 | -125.87646 | 39098 ft | 502 kts | 171° |
| 2026-05-05 16:03 | 38.39450 | -125.87179 | 39092 ft | 502 kts | 171° |
| 2026-05-05 16:03 | 38.32475 | -125.86712 | 39096 ft | 502 kts | 171° |
| 2026-05-05 16:04 | 38.25496 | -125.86247 | 39091 ft | 502 kts | 171° |
| 2026-05-05 16:04 | 38.18509 | -125.85781 | 39093 ft | 502 kts | 171° |
| 2026-05-05 16:05 | 38.11526 | -125.85318 | 39092 ft | 502 kts | 171° |
| 2026-05-05 16:05 | 38.04545 | -125.84854 | 39094 ft | 502 kts | 172° |
| 2026-05-05 16:06 | 37.97566 | -125.84393 | 39088 ft | 502 kts | 172° |
| 2026-05-05 16:06 | 37.90585 | -125.83931 | 39093 ft | 502 kts | 172° |
| 2026-05-05 16:07 | 37.83710 | -125.82908 | 38854 ft | 493 kts | 153° |
| 2026-05-05 16:07 | 37.80750 | -125.80877 | 38309 ft | 488 kts | 134° |
| 2026-05-05 16:07 | 37.78141 | -125.78154 | 38784 ft | 475 kts | 135° |
| 2026-05-05 16:07 | 37.75583 | -125.75623 | 38975 ft | 471 kts | 136° |
| 2026-05-05 16:08 | 37.73037 | -125.73052 | 39039 ft | 468 kts | 135° |
| 2026-05-05 16:08 | 37.67954 | -125.67894 | 39075 ft | 468 kts | 136° |
| 2026-05-05 16:09 | 37.62866 | -125.62765 | 39074 ft | 468 kts | 136° |
| 2026-05-05 16:09 | 37.57771 | -125.57637 | 39085 ft | 469 kts | 136° |
| 2026-05-05 16:10 | 37.52640 | -125.52482 | 39080 ft | 469 kts | 136° |
| 2026-05-05 16:10 | 37.47536 | -125.47361 | 39076 ft | 469 kts | 136° |
| 2026-05-05 16:11 | 37.42467 | -125.42287 | 39080 ft | 469 kts | 136° |
| 2026-05-05 16:12 | 37.32258 | -125.32094 | 39084 ft | 469 kts | 136° |
| 2026-05-05 16:13 | 37.19476 | -125.19382 | 39084 ft | 469 kts | 137° |
| 2026-05-05 16:13 | 37.14357 | -125.14307 | 39083 ft | 469 kts | 137° |
| 2026-05-05 16:14 | 37.04130 | -125.04195 | 39079 ft | 468 kts | 137° |
| 2026-05-05 16:15 | 37.00261 | -124.97954 | 39093 ft | 462 kts | 97° |
| 2026-05-05 16:15 | 37.01476 | -124.90240 | 39185 ft | 469 kts | 50° |
| 2026-05-05 16:16 | 37.06738 | -124.85567 | 39201 ft | 468 kts | 37° |
| 2026-05-05 16:16 | 37.11437 | -124.79966 | 39192 ft | 467 kts | 50° |
| 2026-05-05 16:17 | 37.17121 | -124.70006 | 39119 ft | 470 kts | 54° |
| 2026-05-05 16:18 | 37.22801 | -124.59941 | 39071 ft | 472 kts | 54° |
| 2026-05-05 16:19 | 37.28453 | -124.49911 | 39049 ft | 465 kts | 54° |
| 2026-05-05 16:19 | 37.33979 | -124.40074 | 39046 ft | 457 kts | 54° |
| 2026-05-05 16:20 | 37.41215 | -124.27149 | 39053 ft | 447 kts | 54° |
| 2026-05-05 16:22 | 37.50027 | -124.11341 | 39053 ft | 436 kts | 54° |
| 2026-05-05 16:23 | 37.56910 | -123.98942 | 39059 ft | 428 kts | 55° |
| 2026-05-05 16:23 | 37.58612 | -123.95869 | 38726 ft | 432 kts | 55° |
| 2026-05-05 16:23 | 37.62219 | -123.89345 | 36220 ft | 472 kts | 55° |
| 2026-05-05 16:24 | 37.64113 | -123.85914 | 35119 ft | 478 kts | 55° |
| 2026-05-05 16:24 | 37.66011 | -123.82476 | 34047 ft | 475 kts | 55° |
| 2026-05-05 16:24 | 37.69680 | -123.75813 | 31509 ft | 449 kts | 54° |
| 2026-05-05 16:25 | 37.71448 | -123.72598 | 30310 ft | 442 kts | 54° |
| 2026-05-05 16:25 | 37.74958 | -123.66208 | 27684 ft | 451 kts | 54° |
| 2026-05-05 16:25 | 37.76741 | -123.62955 | 26435 ft | 455 kts | 54° |
| 2026-05-05 16:26 | 37.80400 | -123.56272 | 24017 ft | 460 kts | 54° |
| 2026-05-05 16:26 | 37.84063 | -123.49570 | 21037 ft | 469 kts | 54° |
| 2026-05-05 16:27 | 37.85923 | -123.46160 | 19676 ft | 472 kts | 54° |
| 2026-05-05 16:27 | 37.87779 | -123.42753 | 18667 ft | 467 kts | 54° |
| 2026-05-05 16:27 | 37.89590 | -123.39429 | 17576 ft | 462 kts | 54° |
| 2026-05-05 16:27 | 37.91400 | -123.36099 | 16400 ft | 458 kts | 54° |
| 2026-05-05 16:28 | 37.93199 | -123.32789 | 15237 ft | 455 kts | 54° |
| 2026-05-05 16:28 | 37.94987 | -123.29495 | 14089 ft | 453 kts | 54° |
| 2026-05-05 16:28 | 37.96764 | -123.26221 | 12840 ft | 450 kts | 54° |
| 2026-05-05 16:28 | 37.98534 | -123.22954 | 11582 ft | 447 kts | 54° |
| 2026-05-05 16:29 | 38.00236 | -123.19887 | 9583 ft | 394 kts | 50° |
| 2026-05-05 16:29 | 38.02298 | -123.17636 | 5470 ft | 450 kts | 21° |
| 2026-05-05 16:29 | 38.05335 | -123.16582 | 5147 ft | 446 kts | 13° |
| 2026-05-05 16:29 | 38.08341 | -123.15881 | 4938 ft | 432 kts | 5° |
| 2026-05-05 16:30 | 38.11287 | -123.15528 | 4772 ft | 422 kts | 5° |
| 2026-05-05 16:30 | 38.14318 | -123.15149 | 4789 ft | 453 kts | 5° |
| 2026-05-05 16:30 | 38.17634 | -123.14717 | 4837 ft | 504 kts | 5° |
| 2026-05-05 16:30 | 38.21176 | -123.14258 | 4869 ft | 519 kts | 5° |
| 2026-05-05 16:31 | 38.24817 | -123.13788 | 4881 ft | 533 kts | 5° |
| 2026-05-05 16:31 | 38.28559 | -123.13303 | 4894 ft | 545 kts | 5° |
| 2026-05-05 16:31 | 38.32374 | -123.12807 | 4896 ft | 556 kts | 5° |
| 2026-05-05 16:31 | 38.36209 | -123.12309 | 4894 ft | 549 kts | 5° |
| 2026-05-05 16:32 | 38.39963 | -123.11820 | 4883 ft | 537 kts | 6° |
| 2026-05-05 16:32 | 38.43629 | -123.11166 | 4834 ft | 530 kts | 14° |
| 2026-05-05 16:32 | 38.47152 | -123.09827 | 4834 ft | 524 kts | 18° |
| 2026-05-05 16:32 | 38.50503 | -123.08055 | 4817 ft | 518 kts | 26° |
| 2026-05-05 16:33 | 38.53734 | -123.06084 | 4818 ft | 514 kts | 25° |
| 2026-05-05 16:33 | 38.56947 | -123.04145 | 4827 ft | 510 kts | 25° |
| 2026-05-05 16:33 | 38.60149 | -123.02206 | 4854 ft | 506 kts | 25° |
| 2026-05-05 16:33 | 38.63284 | -123.00302 | 4878 ft | 503 kts | 25° |
| 2026-05-05 16:34 | 38.66481 | -122.98363 | 4888 ft | 501 kts | 25° |
| 2026-05-05 16:34 | 38.69579 | -122.96481 | 4887 ft | 499 kts | 25° |
| 2026-05-05 16:34 | 38.72702 | -122.94580 | 4877 ft | 497 kts | 25° |
| 2026-05-05 16:34 | 38.75817 | -122.92684 | 4876 ft | 495 kts | 25° |
| 2026-05-05 16:35 | 38.78922 | -122.90792 | 4860 ft | 493 kts | 25° |
| 2026-05-05 16:35 | 38.82012 | -122.88908 | 4869 ft | 492 kts | 25° |
| 2026-05-05 16:35 | 38.85095 | -122.87027 | 4852 ft | 491 kts | 25° |
| 2026-05-05 16:35 | 38.88178 | -122.85142 | 4851 ft | 490 kts | 25° |
| 2026-05-05 16:36 | 38.91251 | -122.83262 | 4857 ft | 489 kts | 25° |
| 2026-05-05 16:36 | 38.94318 | -122.81385 | 4857 ft | 488 kts | 25° |
| 2026-05-05 16:36 | 38.97373 | -122.79513 | 4854 ft | 487 kts | 25° |
| 2026-05-05 16:36 | 39.00432 | -122.77625 | 4849 ft | 485 kts | 26° |
| 2026-05-05 16:37 | 39.03098 | -122.74985 | 4954 ft | 491 kts | 46° |
| 2026-05-05 16:37 | 39.05401 | -122.71678 | 5234 ft | 505 kts | 49° |
| 2026-05-05 16:37 | 39.07568 | -122.68049 | 5535 ft | 516 kts | 57° |
| 2026-05-05 16:37 | 39.09535 | -122.64147 | 5825 ft | 525 kts | 56° |
| 2026-05-05 16:38 | 39.11566 | -122.60177 | 6012 ft | 536 kts | 56° |
| 2026-05-05 16:38 | 39.13637 | -122.56122 | 6032 ft | 549 kts | 56° |
| 2026-05-05 16:38 | 39.15750 | -122.51972 | 6048 ft | 559 kts | 56° |
| 2026-05-05 16:38 | 39.17860 | -122.47824 | 6049 ft | 547 kts | 56° |
| 2026-05-05 16:39 | 39.19901 | -122.43809 | 6046 ft | 536 kts | 56° |
| 2026-05-05 16:39 | 39.21920 | -122.39831 | 6036 ft | 525 kts | 56° |
| 2026-05-05 16:39 | 39.23903 | -122.35920 | 6025 ft | 517 kts | 56° |
| 2026-05-05 16:39 | 39.25860 | -122.32057 | 6014 ft | 509 kts | 56° |
| 2026-05-05 16:40 | 39.27784 | -122.28251 | 5712 ft | 508 kts | 56° |
| 2026-05-05 16:40 | 39.29726 | -122.24408 | 5137 ft | 513 kts | 56° |
| 2026-05-05 16:40 | 39.31673 | -122.20548 | 4654 ft | 516 kts | 57° |
| 2026-05-05 16:40 | 39.33611 | -122.16701 | 4841 ft | 504 kts | 57° |
| 2026-05-05 16:41 | 39.35499 | -122.12949 | 5033 ft | 494 kts | 57° |
| 2026-05-05 16:41 | 39.37311 | -122.09345 | 5101 ft | 489 kts | 56° |
| 2026-05-05 16:41 | 39.39159 | -122.05666 | 5131 ft | 487 kts | 57° |
| 2026-05-05 16:41 | 39.41003 | -122.01990 | 5124 ft | 487 kts | 57° |
| 2026-05-05 16:42 | 39.42841 | -121.98320 | 5128 ft | 486 kts | 57° |
| 2026-05-05 16:42 | 39.44676 | -121.94652 | 5133 ft | 486 kts | 57° |
| 2026-05-05 16:42 | 39.45895 | -121.92216 | 5140 ft | 485 kts | 57° |
| 2026-05-05 16:42 | 39.47726 | -121.88550 | 5136 ft | 493 kts | 57° |
| 2026-05-05 16:43 | 39.49630 | -121.84735 | 5154 ft | 516 kts | 57° |
| 2026-05-05 16:43 | 39.51616 | -121.80750 | 5172 ft | 535 kts | 57° |
| 2026-05-05 16:43 | 39.53665 | -121.76633 | 5185 ft | 552 kts | 57° |
| 2026-05-05 16:43 | 39.55765 | -121.72406 | 5213 ft | 565 kts | 57° |
| 2026-05-05 16:44 | 39.57883 | -121.68137 | 5221 ft | 559 kts | 57° |
| 2026-05-05 16:44 | 39.59968 | -121.63931 | 5221 ft | 551 kts | 57° |
| 2026-05-05 16:44 | 39.62029 | -121.59766 | 5211 ft | 545 kts | 57° |
| 2026-05-05 16:44 | 39.64061 | -121.55656 | 5199 ft | 540 kts | 57° |
| 2026-05-05 16:45 | 39.66493 | -121.51997 | 5136 ft | 534 kts | 39° |
| 2026-05-05 16:45 | 39.69474 | -121.49150 | 5122 ft | 529 kts | 32° |
| 2026-05-05 16:45 | 39.72725 | -121.46990 | 5103 ft | 525 kts | 26° |
| 2026-05-05 16:45 | 39.75967 | -121.44846 | 5108 ft | 522 kts | 27° |
| 2026-05-05 16:46 | 39.79190 | -121.42679 | 5112 ft | 520 kts | 27° |
| 2026-05-05 16:46 | 39.82400 | -121.40536 | 5108 ft | 518 kts | 27° |
| 2026-05-05 16:46 | 39.85596 | -121.38402 | 5125 ft | 516 kts | 27° |
| 2026-05-05 16:46 | 39.88782 | -121.36270 | 5397 ft | 510 kts | 27° |
| 2026-05-05 16:47 | 39.91947 | -121.34150 | 5661 ft | 517 kts | 27° |
| 2026-05-05 16:47 | 39.95157 | -121.31999 | 5917 ft | 523 kts | 27° |
| 2026-05-05 16:47 | 39.98444 | -121.29792 | 5917 ft | 533 kts | 27° |
| 2026-05-05 16:47 | 40.01755 | -121.27566 | 5906 ft | 542 kts | 27° |
| 2026-05-05 16:48 | 40.05128 | -121.25299 | 5907 ft | 549 kts | 27° |
| 2026-05-05 16:48 | 40.08543 | -121.22999 | 5922 ft | 555 kts | 27° |
| 2026-05-05 16:48 | 40.11980 | -121.20680 | 5931 ft | 559 kts | 27° |
| 2026-05-05 16:48 | 40.15466 | -121.18329 | 5934 ft | 563 kts | 27° |
| 2026-05-05 16:49 | 40.18914 | -121.15998 | 5939 ft | 566 kts | 27° |
| 2026-05-05 16:49 | 40.22330 | -121.13487 | 5924 ft | 567 kts | 31° |
| 2026-05-05 16:49 | 40.25581 | -121.10563 | 5901 ft | 563 kts | 40° |
| 2026-05-05 16:49 | 40.28519 | -121.07156 | 6208 ft | 550 kts | 40° |
| 2026-05-05 16:50 | 40.31401 | -121.03921 | 6500 ft | 541 kts | 40° |
| 2026-05-05 16:50 | 40.34243 | -121.00727 | 6814 ft | 535 kts | 40° |
| 2026-05-05 16:50 | 40.37049 | -120.97562 | 7117 ft | 529 kts | 40° |
| 2026-05-05 16:50 | 40.39790 | -120.94461 | 7422 ft | 524 kts | 40° |
| 2026-05-05 16:51 | 40.42531 | -120.91369 | 7713 ft | 520 kts | 40° |
| 2026-05-05 16:51 | 40.45267 | -120.88268 | 8037 ft | 516 kts | 40° |
| 2026-05-05 16:51 | 40.47989 | -120.85177 | 8103 ft | 518 kts | 41° |
| 2026-05-05 16:51 | 40.50716 | -120.82093 | 8187 ft | 519 kts | 41° |
| 2026-05-05 16:52 | 40.53308 | -120.78786 | 8187 ft | 520 kts | 52° |
| 2026-05-05 16:52 | 40.54887 | -120.74520 | 8181 ft | 524 kts | 74° |
| 2026-05-05 16:52 | 40.55129 | -120.69760 | 8261 ft | 529 kts | 96° |
| 2026-05-05 16:52 | 40.54044 | -120.65129 | 8333 ft | 533 kts | 111° |
| 2026-05-05 16:53 | 40.52478 | -120.60662 | 7929 ft | 543 kts | 114° |
| 2026-05-05 16:53 | 40.50813 | -120.56167 | 7539 ft | 552 kts | 115° |
| 2026-05-05 16:53 | 40.49120 | -120.51634 | 7571 ft | 550 kts | 115° |
| 2026-05-05 16:53 | 40.47441 | -120.47132 | 7610 ft | 548 kts | 115° |
| 2026-05-05 16:54 | 40.45787 | -120.42652 | 7608 ft | 546 kts | 115° |
| 2026-05-05 16:54 | 40.44143 | -120.38145 | 7596 ft | 545 kts | 114° |
| 2026-05-05 16:54 | 40.42701 | -120.33581 | 7540 ft | 542 kts | 107° |
| 2026-05-05 16:54 | 40.41468 | -120.28967 | 7516 ft | 541 kts | 109° |
| 2026-05-05 16:55 | 40.40194 | -120.24315 | 7512 ft | 541 kts | 109° |
| 2026-05-05 16:55 | 40.38931 | -120.19670 | 7500 ft | 540 kts | 109° |
| 2026-05-05 16:55 | 40.37667 | -120.15052 | 7693 ft | 536 kts | 108° |
| 2026-05-05 16:55 | 40.36411 | -120.10477 | 8084 ft | 528 kts | 109° |
| 2026-05-05 16:56 | 40.35177 | -120.05972 | 8245 ft | 527 kts | 109° |
| 2026-05-05 16:56 | 40.33927 | -120.01436 | 7988 ft | 533 kts | 109° |
| 2026-05-05 16:56 | 40.32659 | -119.96831 | 7595 ft | 541 kts | 109° |
| 2026-05-05 16:56 | 40.31369 | -119.92159 | 7226 ft | 548 kts | 109° |
| 2026-05-05 16:57 | 40.30064 | -119.87449 | 6978 ft | 552 kts | 109° |
| 2026-05-05 16:57 | 40.28752 | -119.82728 | 6995 ft | 550 kts | 109° |
| 2026-05-05 16:57 | 40.27446 | -119.78011 | 7005 ft | 548 kts | 110° |
| 2026-05-05 16:57 | 40.26141 | -119.73328 | 7004 ft | 547 kts | 110° |
| 2026-05-05 16:58 | 40.24841 | -119.68662 | 7018 ft | 545 kts | 110° |
| 2026-05-05 16:58 | 40.23539 | -119.64004 | 7016 ft | 544 kts | 110° |
| 2026-05-05 16:58 | 40.22242 | -119.59363 | 7016 ft | 543 kts | 110° |
| 2026-05-05 16:58 | 40.20952 | -119.54724 | 7165 ft | 539 kts | 109° |
| 2026-05-05 16:59 | 40.19480 | -119.50262 | 7441 ft | 532 kts | 115° |
| 2026-05-05 16:59 | 40.17944 | -119.45941 | 8549 ft | 508 kts | 114° |
| 2026-05-05 16:59 | 40.16457 | -119.41751 | 8831 ft | 510 kts | 114° |
| 2026-05-05 16:59 | 40.14952 | -119.37491 | 8351 ft | 524 kts | 114° |
| 2026-05-05 17:00 | 40.13399 | -119.33127 | 7898 ft | 535 kts | 114° |
| 2026-05-05 17:00 | 40.11812 | -119.28677 | 7467 ft | 543 kts | 114° |
| 2026-05-05 17:00 | 40.10228 | -119.24240 | 7072 ft | 550 kts | 115° |
| 2026-05-05 17:00 | 40.08610 | -119.19714 | 6966 ft | 550 kts | 115° |
| 2026-05-05 17:01 | 40.06998 | -119.15205 | 6962 ft | 548 kts | 115° |
| 2026-05-05 17:01 | 40.05382 | -119.10692 | 6962 ft | 546 kts | 115° |
| 2026-05-05 17:01 | 40.03778 | -119.06223 | 6957 ft | 544 kts | 115° |
| 2026-05-05 17:01 | 40.02174 | -119.01759 | 6956 ft | 542 kts | 115° |
| 2026-05-05 17:02 | 40.00569 | -118.97299 | 6960 ft | 541 kts | 115° |
| 2026-05-05 17:02 | 39.98969 | -118.92861 | 6963 ft | 540 kts | 115° |
| 2026-05-05 17:02 | 39.97371 | -118.88433 | 6980 ft | 539 kts | 115° |
| 2026-05-05 17:02 | 39.95776 | -118.84022 | 6991 ft | 539 kts | 115° |
| 2026-05-05 17:03 | 39.94176 | -118.79605 | 7000 ft | 538 kts | 115° |
| 2026-05-05 17:03 | 39.92582 | -118.75208 | 7012 ft | 538 kts | 115° |
| 2026-05-05 17:03 | 39.90979 | -118.70793 | 6999 ft | 538 kts | 115° |
| 2026-05-05 17:03 | 39.89571 | -118.66299 | 7002 ft | 537 kts | 104° |
| 2026-05-05 17:04 | 39.89376 | -118.61462 | 7014 ft | 539 kts | 82° |
| 2026-05-05 17:04 | 39.90553 | -118.56856 | 7088 ft | 539 kts | 61° |
| 2026-05-05 17:04 | 39.92909 | -118.53064 | 6908 ft | 543 kts | 41° |
| 2026-05-05 17:04 | 39.96137 | -118.50447 | 6133 ft | 556 kts | 23° |
| 2026-05-05 17:05 | 39.99708 | -118.48365 | 5255 ft | 568 kts | 23° |
| 2026-05-05 17:05 | 40.03337 | -118.46216 | 5046 ft | 568 kts | 25° |
| 2026-05-05 17:05 | 40.06817 | -118.43854 | 5190 ft | 560 kts | 31° |
| 2026-05-05 17:05 | 40.09876 | -118.40783 | 5464 ft | 555 kts | 51° |
| 2026-05-05 17:06 | 40.11337 | -118.36328 | 6529 ft | 537 kts | 84° |
| 2026-05-05 17:06 | 40.10848 | -118.31473 | 6681 ft | 541 kts | 110° |
| 2026-05-05 17:06 | 40.09412 | -118.26890 | 6314 ft | 554 kts | 113° |
| 2026-05-05 17:06 | 40.07837 | -118.22235 | 4977 ft | 583 kts | 118° |
| 2026-05-05 17:07 | 40.05801 | -118.17846 | 4761 ft | 563 kts | 126° |
| 2026-05-05 17:07 | 40.03052 | -118.14286 | 4981 ft | 536 kts | 148° |
| 2026-05-05 17:07 | 39.99582 | -118.13151 | 5045 ft | 529 kts | 194° |
| 2026-05-05 17:07 | 39.96538 | -118.15759 | 5408 ft | 534 kts | 229° |
| 2026-05-05 17:08 | 39.94330 | -118.19566 | 7929 ft | 506 kts | 234° |
| 2026-05-05 17:08 | 39.92366 | -118.23183 | 13100 ft | 481 kts | 235° |
| 2026-05-05 17:08 | 39.90538 | -118.26671 | 17427 ft | 457 kts | 235° |
| 2026-05-05 17:08 | 39.88712 | -118.30197 | 19520 ft | 489 kts | 235° |
| 2026-05-05 17:09 | 39.86931 | -118.34203 | 19556 ft | 547 kts | 240° |
| 2026-05-05 17:09 | 39.84502 | -118.38289 | 19598 ft | 572 kts | 221° |
| 2026-05-05 17:09 | 39.81479 | -118.41529 | 19613 ft | 554 kts | 215° |
| 2026-05-05 17:09 | 39.78405 | -118.44438 | 19604 ft | 540 kts | 213° |
| 2026-05-05 17:10 | 39.75318 | -118.47012 | 19566 ft | 525 kts | 205° |
| 2026-05-05 17:10 | 39.72131 | -118.49210 | 19563 ft | 513 kts | 206° |
| 2026-05-05 17:10 | 39.69024 | -118.51402 | 19573 ft | 503 kts | 206° |
| 2026-05-05 17:10 | 39.65981 | -118.53541 | 19580 ft | 493 kts | 205° |
| 2026-05-05 17:11 | 39.62975 | -118.55644 | 19532 ft | 486 kts | 205° |
| 2026-05-05 17:11 | 39.60038 | -118.57701 | 19620 ft | 474 kts | 205° |
| 2026-05-05 17:11 | 39.57161 | -118.59714 | 19655 ft | 466 kts | 205° |
| 2026-05-05 17:11 | 39.54327 | -118.61695 | 19664 ft | 458 kts | 205° |
| 2026-05-05 17:12 | 39.51545 | -118.63638 | 19662 ft | 452 kts | 205° |
| 2026-05-05 17:12 | 39.48796 | -118.65558 | 19660 ft | 445 kts | 205° |
| 2026-05-05 17:12 | 39.46052 | -118.67469 | 20018 ft | 446 kts | 205° |
| 2026-05-05 17:12 | 39.43595 | -118.69556 | 20847 ft | 439 kts | 225° |
| 2026-05-05 17:13 | 39.41971 | -118.72834 | 22257 ft | 437 kts | 250° |
| 2026-05-05 17:13 | 39.41605 | -118.76706 | 23768 ft | 439 kts | 282° |
| 2026-05-05 17:13 | 39.42607 | -118.80413 | 25259 ft | 439 kts | 307° |
| 2026-05-05 17:13 | 39.44559 | -118.83490 | 26590 ft | 448 kts | 316° |
| 2026-05-05 17:14 | 39.46560 | -118.86645 | 27874 ft | 465 kts | 310° |
| 2026-05-05 17:14 | 39.48394 | -118.90164 | 29224 ft | 482 kts | 303° |
| 2026-05-05 17:14 | 39.49786 | -118.94198 | 30546 ft | 496 kts | 294° |
| 2026-05-05 17:14 | 39.51377 | -118.98136 | 31924 ft | 492 kts | 313° |
| 2026-05-05 17:15 | 39.53952 | -119.00950 | 33481 ft | 484 kts | 337° |
| 2026-05-05 17:15 | 39.57046 | -119.02099 | 34887 ft | 447 kts | 3° |
| 2026-05-05 17:15 | 39.59958 | -119.01413 | 36310 ft | 412 kts | 29° |
| 2026-05-05 17:15 | 39.62150 | -118.99187 | 37579 ft | 402 kts | 55° |
| 2026-05-05 17:16 | 39.63677 | -118.96130 | 38518 ft | 403 kts | 60° |
| 2026-05-05 17:16 | 39.65080 | -118.92982 | 39238 ft | 406 kts | 60° |
| 2026-05-05 17:16 | 39.66655 | -118.89905 | 39613 ft | 418 kts | 46° |
| 2026-05-05 17:16 | 39.69062 | -118.87642 | 39589 ft | 439 kts | 24° |
| 2026-05-05 17:17 | 39.71848 | -118.85936 | 40083 ft | 448 kts | 23° |
| 2026-05-05 17:17 | 39.74687 | -118.84077 | 40350 ft | 465 kts | 28° |
| 2026-05-05 17:17 | 39.77526 | -118.82025 | 40547 ft | 482 kts | 27° |
| 2026-05-05 17:17 | 39.80532 | -118.79950 | 40781 ft | 498 kts | 26° |
| 2026-05-05 17:18 | 39.83630 | -118.77821 | 40964 ft | 507 kts | 27° |
| 2026-05-05 17:18 | 39.86739 | -118.75658 | 40976 ft | 508 kts | 27° |
| 2026-05-05 17:18 | 39.92984 | -118.71337 | 40949 ft | 505 kts | 27° |
| 2026-05-05 17:19 | 39.99165 | -118.67051 | 40963 ft | 502 kts | 27° |
| 2026-05-05 17:19 | 40.05301 | -118.62789 | 40963 ft | 498 kts | 27° |
| 2026-05-05 17:20 | 40.11332 | -118.58402 | 40950 ft | 495 kts | 32° |
| 2026-05-05 17:20 | 40.16658 | -118.52778 | 40953 ft | 491 kts | 43° |
| 2026-05-05 17:21 | 40.21688 | -118.46693 | 40939 ft | 488 kts | 42° |
| 2026-05-05 17:22 | 40.29090 | -118.37698 | 40911 ft | 484 kts | 42° |
| 2026-05-05 17:22 | 40.34021 | -118.31696 | 40887 ft | 482 kts | 42° |
| 2026-05-05 17:23 | 40.38917 | -118.25727 | 40875 ft | 480 kts | 42° |
| 2026-05-05 17:23 | 40.43797 | -118.19764 | 40875 ft | 478 kts | 42° |
| 2026-05-05 17:24 | 40.48652 | -118.13819 | 40872 ft | 476 kts | 43° |
| 2026-05-05 17:24 | 40.53488 | -118.07885 | 40874 ft | 475 kts | 43° |
| 2026-05-05 17:25 | 40.58295 | -118.01976 | 40861 ft | 473 kts | 43° |
| 2026-05-05 17:25 | 40.63080 | -117.96079 | 40889 ft | 472 kts | 43° |
| 2026-05-05 17:26 | 40.67864 | -117.90174 | 40905 ft | 471 kts | 43° |
| 2026-05-05 17:26 | 40.72638 | -117.84267 | 40921 ft | 471 kts | 43° |
| 2026-05-05 17:27 | 40.77378 | -117.78280 | 40917 ft | 473 kts | 48° |
| 2026-05-05 17:27 | 40.80870 | -117.70949 | 40919 ft | 475 kts | 68° |
| 2026-05-05 17:28 | 40.83240 | -117.62816 | 40932 ft | 475 kts | 68° |
| 2026-05-05 17:28 | 40.85634 | -117.54683 | 40915 ft | 476 kts | 68° |
| 2026-05-05 17:29 | 40.88023 | -117.46527 | 40892 ft | 476 kts | 68° |
| 2026-05-05 17:29 | 40.90395 | -117.38395 | 40862 ft | 477 kts | 68° |
| 2026-05-05 17:30 | 40.92780 | -117.30202 | 40836 ft | 478 kts | 68° |
| 2026-05-05 17:30 | 40.95161 | -117.21992 | 40836 ft | 478 kts | 68° |
| 2026-05-05 17:31 | 40.97543 | -117.13757 | 40833 ft | 479 kts | 68° |
| 2026-05-05 17:31 | 40.99915 | -117.05527 | 40833 ft | 479 kts | 68° |
| 2026-05-05 17:32 | 41.01889 | -116.98663 | 40833 ft | 480 kts | 68° |
| 2026-05-05 17:32 | 41.04257 | -116.90399 | 40833 ft | 480 kts | 68° |
| 2026-05-05 17:33 | 41.06620 | -116.82128 | 40836 ft | 480 kts | 68° |
| 2026-05-05 17:33 | 41.08981 | -116.73834 | 40833 ft | 481 kts | 68° |
| 2026-05-05 17:34 | 41.11338 | -116.65531 | 40840 ft | 481 kts | 68° |
| 2026-05-05 17:34 | 41.13691 | -116.57214 | 40841 ft | 482 kts | 68° |
| 2026-05-05 17:35 | 41.16040 | -116.48884 | 40835 ft | 482 kts | 68° |
| 2026-05-05 17:35 | 41.18384 | -116.40542 | 40842 ft | 483 kts | 68° |
| 2026-05-05 17:36 | 41.20728 | -116.32175 | 40844 ft | 483 kts | 68° |
| 2026-05-05 17:36 | 41.23033 | -116.23791 | 40838 ft | 484 kts | 69° |
| 2026-05-05 17:37 | 41.25610 | -116.15542 | 40842 ft | 484 kts | 65° |
| 2026-05-05 17:37 | 41.28217 | -116.07279 | 40835 ft | 484 kts | 65° |
| 2026-05-05 17:38 | 41.30836 | -115.99018 | 40833 ft | 485 kts | 65° |
| 2026-05-05 17:38 | 41.33445 | -115.90728 | 40831 ft | 486 kts | 65° |
| 2026-05-05 17:39 | 41.36051 | -115.82431 | 40819 ft | 486 kts | 65° |
| 2026-05-05 17:39 | 41.38653 | -115.74120 | 40816 ft | 487 kts | 65° |
| 2026-05-05 17:40 | 41.41250 | -115.65801 | 40810 ft | 487 kts | 65° |
| 2026-05-05 17:40 | 41.43843 | -115.57465 | 40813 ft | 487 kts | 65° |
| 2026-05-05 17:41 | 41.46432 | -115.49118 | 40809 ft | 487 kts | 66° |
| 2026-05-05 17:41 | 41.49017 | -115.40755 | 40808 ft | 488 kts | 66° |
| 2026-05-05 17:42 | 41.51580 | -115.32442 | 40812 ft | 488 kts | 66° |
| 2026-05-05 17:42 | 41.54175 | -115.23996 | 40806 ft | 488 kts | 66° |
| 2026-05-05 17:43 | 41.56744 | -115.15607 | 40811 ft | 489 kts | 66° |
| 2026-05-05 17:43 | 41.59332 | -115.07277 | 40792 ft | 488 kts | 62° |
| 2026-05-05 17:43 | 41.61176 | -115.03427 | 40800 ft | 485 kts | 50° |
| 2026-05-05 17:44 | 41.63314 | -115.00043 | 40825 ft | 482 kts | 43° |
| 2026-05-05 17:44 | 41.68248 | -114.93990 | 40816 ft | 475 kts | 41° |
| 2026-05-05 17:45 | 41.73083 | -114.88025 | 40797 ft | 470 kts | 40° |
| 2026-05-05 17:45 | 41.77837 | -114.82166 | 40790 ft | 465 kts | 41° |
| 2026-05-05 17:46 | 41.82559 | -114.76330 | 40795 ft | 460 kts | 41° |
| 2026-05-05 17:46 | 41.87263 | -114.70506 | 40796 ft | 455 kts | 41° |
| 2026-05-05 17:47 | 41.91851 | -114.64812 | 40803 ft | 450 kts | 41° |
| 2026-05-05 17:47 | 41.96413 | -114.59139 | 40806 ft | 446 kts | 41° |
| 2026-05-05 17:48 | 42.00943 | -114.53494 | 40814 ft | 443 kts | 41° |
| 2026-05-05 17:48 | 42.05444 | -114.47874 | 40813 ft | 440 kts | 41° |
| 2026-05-05 17:49 | 42.09911 | -114.42286 | 40819 ft | 437 kts | 41° |
| 2026-05-05 17:49 | 42.14367 | -114.36701 | 40825 ft | 439 kts | 41° |
| 2026-05-05 17:50 | 42.18845 | -114.31074 | 40833 ft | 442 kts | 41° |
| 2026-05-05 17:50 | 42.23352 | -114.25401 | 40840 ft | 445 kts | 41° |
| 2026-05-05 17:51 | 42.27888 | -114.19680 | 40838 ft | 447 kts | 41° |
| 2026-05-05 17:51 | 42.32443 | -114.13923 | 40840 ft | 450 kts | 41° |
| 2026-05-05 17:52 | 42.37022 | -114.08123 | 40835 ft | 452 kts | 41° |
| 2026-05-05 17:52 | 42.41621 | -114.02285 | 40834 ft | 454 kts | 40° |
| 2026-05-05 17:53 | 42.46237 | -113.96414 | 40830 ft | 456 kts | 40° |
| 2026-05-05 17:53 | 42.50866 | -113.90513 | 40833 ft | 457 kts | 40° |
| 2026-05-05 17:54 | 42.55501 | -113.84593 | 40833 ft | 459 kts | 40° |
| 2026-05-05 17:54 | 42.60118 | -113.78682 | 40834 ft | 460 kts | 40° |
| 2026-05-05 17:55 | 42.64777 | -113.72705 | 40833 ft | 461 kts | 40° |
| 2026-05-05 17:55 | 42.69436 | -113.66715 | 40834 ft | 462 kts | 40° |
| 2026-05-05 17:56 | 42.74117 | -113.60685 | 40826 ft | 463 kts | 40° |
| 2026-05-05 17:56 | 42.78790 | -113.54650 | 40829 ft | 464 kts | 40° |
| 2026-05-05 17:57 | 42.83476 | -113.48586 | 40828 ft | 465 kts | 40° |
| 2026-05-05 17:57 | 42.88157 | -113.42515 | 40830 ft | 465 kts | 40° |
| 2026-05-05 17:58 | 42.92825 | -113.36448 | 40828 ft | 466 kts | 40° |
| 2026-05-05 17:58 | 42.97515 | -113.30337 | 40831 ft | 466 kts | 40° |
| 2026-05-05 17:59 | 43.02207 | -113.24212 | 40834 ft | 467 kts | 40° |
| 2026-05-05 17:59 | 43.06900 | -113.18071 | 40838 ft | 467 kts | 40° |
| 2026-05-05 18:00 | 43.11577 | -113.11938 | 40843 ft | 468 kts | 40° |
| 2026-05-05 18:00 | 43.16276 | -113.05760 | 40845 ft | 468 kts | 40° |
| 2026-05-05 18:01 | 43.20979 | -112.99566 | 40849 ft | 469 kts | 40° |
| 2026-05-05 18:01 | 43.25670 | -112.93372 | 40850 ft | 469 kts | 40° |
| 2026-05-05 18:02 | 43.30367 | -112.87158 | 40853 ft | 469 kts | 40° |
| 2026-05-05 18:02 | 43.35029 | -112.80974 | 40856 ft | 469 kts | 40° |
| 2026-05-05 18:03 | 43.39722 | -112.74736 | 40860 ft | 469 kts | 40° |
| 2026-05-05 18:03 | 43.44409 | -112.68492 | 40865 ft | 469 kts | 40° |
| 2026-05-05 18:04 | 43.49095 | -112.62234 | 40862 ft | 469 kts | 40° |
| 2026-05-05 18:04 | 43.53777 | -112.55968 | 40874 ft | 469 kts | 40° |
| 2026-05-05 18:05 | 43.58458 | -112.49689 | 40881 ft | 469 kts | 40° |
| 2026-05-05 18:05 | 43.63133 | -112.43403 | 40899 ft | 469 kts | 40° |
| 2026-05-05 18:06 | 43.67809 | -112.37101 | 40901 ft | 470 kts | 40° |
| 2026-05-05 18:06 | 43.72481 | -112.30791 | 40913 ft | 470 kts | 40° |
| 2026-05-05 18:07 | 43.77149 | -112.24472 | 40898 ft | 470 kts | 40° |
| 2026-05-05 18:07 | 43.81814 | -112.18141 | 40908 ft | 470 kts | 40° |
| 2026-05-05 18:08 | 43.86464 | -112.11818 | 40921 ft | 470 kts | 40° |
| 2026-05-05 18:08 | 43.91120 | -112.05469 | 40937 ft | 470 kts | 40° |
| 2026-05-05 18:09 | 43.95780 | -111.99103 | 40939 ft | 470 kts | 40° |
| 2026-05-05 18:09 | 44.00415 | -111.92755 | 40933 ft | 470 kts | 40° |
| 2026-05-05 18:10 | 44.05055 | -111.86385 | 40929 ft | 470 kts | 40° |
| 2026-05-05 18:10 | 44.09707 | -111.79984 | 40920 ft | 470 kts | 40° |
| 2026-05-05 18:11 | 44.14331 | -111.73607 | 40910 ft | 470 kts | 40° |
| 2026-05-05 18:11 | 44.18974 | -111.67189 | 40902 ft | 470 kts | 40° |
| 2026-05-05 18:12 | 44.23610 | -111.60766 | 40895 ft | 470 kts | 40° |
| 2026-05-05 18:12 | 44.28203 | -111.54385 | 40913 ft | 469 kts | 40° |
| 2026-05-05 18:13 | 44.32825 | -111.47951 | 40918 ft | 469 kts | 40° |
| 2026-05-05 18:13 | 44.37448 | -111.41499 | 40918 ft | 469 kts | 40° |
| 2026-05-05 18:14 | 44.42064 | -111.35042 | 40935 ft | 469 kts | 40° |
| 2026-05-05 18:14 | 44.46677 | -111.28575 | 40961 ft | 469 kts | 40° |
| 2026-05-05 18:15 | 44.51285 | -111.22098 | 40986 ft | 469 kts | 40° |
| 2026-05-05 18:15 | 44.55888 | -111.15614 | 41007 ft | 469 kts | 40° |
| 2026-05-05 18:16 | 44.60493 | -111.09112 | 41017 ft | 469 kts | 40° |
| 2026-05-05 18:16 | 44.65091 | -111.02604 | 41017 ft | 470 kts | 40° |
| 2026-05-05 18:17 | 44.69693 | -110.96074 | 41007 ft | 470 kts | 40° |
| 2026-05-05 18:17 | 44.74278 | -110.89551 | 41006 ft | 470 kts | 40° |
| 2026-05-05 18:18 | 44.78098 | -110.84105 | 40997 ft | 469 kts | 40° |
| 2026-05-05 18:18 | 44.82682 | -110.77558 | 40978 ft | 469 kts | 40° |
| 2026-05-05 18:19 | 44.87258 | -110.71005 | 40991 ft | 469 kts | 40° |
| 2026-05-05 18:19 | 44.91831 | -110.64440 | 41001 ft | 469 kts | 41° |
| 2026-05-05 18:20 | 44.96400 | -110.57867 | 41011 ft | 469 kts | 41° |
| 2026-05-05 18:20 | 45.00969 | -110.51277 | 41010 ft | 469 kts | 41° |
| 2026-05-05 18:21 | 45.05531 | -110.44680 | 41018 ft | 469 kts | 41° |
| 2026-05-05 18:21 | 45.10083 | -110.38081 | 41028 ft | 468 kts | 41° |
| 2026-05-05 18:22 | 45.14628 | -110.31479 | 41055 ft | 468 kts | 41° |
| 2026-05-05 18:22 | 45.19168 | -110.24866 | 41079 ft | 468 kts | 41° |
| 2026-05-05 18:23 | 45.23705 | -110.18242 | 41086 ft | 469 kts | 41° |
| 2026-05-05 18:23 | 45.28213 | -110.11642 | 41092 ft | 468 kts | 41° |
| 2026-05-05 18:24 | 45.32769 | -110.04959 | 41140 ft | 468 kts | 41° |
| 2026-05-05 18:24 | 45.37266 | -109.98345 | 41142 ft | 468 kts | 41° |
| 2026-05-05 18:25 | 45.41789 | -109.91677 | 41143 ft | 469 kts | 41° |
| 2026-05-05 18:25 | 45.46318 | -109.84982 | 41131 ft | 469 kts | 41° |
| 2026-05-05 18:26 | 45.50837 | -109.78287 | 41129 ft | 468 kts | 41° |
| 2026-05-05 18:26 | 45.55346 | -109.71589 | 41124 ft | 467 kts | 41° |
| 2026-05-05 18:27 | 45.59835 | -109.64905 | 41118 ft | 467 kts | 42° |
| 2026-05-05 18:27 | 45.64322 | -109.58208 | 41106 ft | 466 kts | 42° |
| 2026-05-05 18:28 | 45.71037 | -109.48152 | 41101 ft | 465 kts | 42° |
| 2026-05-05 18:28 | 45.75502 | -109.41446 | 41082 ft | 465 kts | 42° |
| 2026-05-05 18:29 | 45.79956 | -109.34740 | 41088 ft | 464 kts | 42° |
| 2026-05-05 18:29 | 45.84401 | -109.28029 | 41090 ft | 464 kts | 42° |
| 2026-05-05 18:30 | 45.88837 | -109.21317 | 41089 ft | 464 kts | 42° |
| 2026-05-05 18:30 | 45.93270 | -109.14593 | 41088 ft | 463 kts | 42° |
| 2026-05-05 18:31 | 45.97688 | -109.07874 | 41091 ft | 462 kts | 42° |
| 2026-05-05 18:31 | 46.02101 | -109.01146 | 41093 ft | 462 kts | 43° |
| 2026-05-05 18:32 | 46.06502 | -108.94421 | 41098 ft | 461 kts | 43° |
| 2026-05-05 18:32 | 46.10864 | -108.87738 | 41102 ft | 461 kts | 43° |
| 2026-05-05 18:33 | 46.15248 | -108.81004 | 41100 ft | 460 kts | 43° |
| 2026-05-05 18:33 | 46.19598 | -108.74306 | 41104 ft | 460 kts | 43° |
| 2026-05-05 18:34 | 46.23952 | -108.67585 | 41108 ft | 459 kts | 43° |
| 2026-05-05 18:34 | 46.28311 | -108.60839 | 41111 ft | 459 kts | 43° |
| 2026-05-05 18:35 | 46.32667 | -108.54083 | 41113 ft | 459 kts | 43° |
| 2026-05-05 18:35 | 46.37014 | -108.47322 | 41111 ft | 459 kts | 43° |
| 2026-05-05 18:36 | 46.41358 | -108.40550 | 41111 ft | 458 kts | 43° |
| 2026-05-05 18:36 | 46.45637 | -108.33860 | 41122 ft | 458 kts | 43° |
| 2026-05-05 18:37 | 46.49970 | -108.27072 | 41119 ft | 459 kts | 43° |
| 2026-05-05 18:37 | 46.54304 | -108.20262 | 41121 ft | 460 kts | 43° |
| 2026-05-05 18:38 | 46.58655 | -108.13411 | 41127 ft | 461 kts | 43° |
| 2026-05-05 18:38 | 46.62970 | -108.06598 | 41124 ft | 462 kts | 44° |
| 2026-05-05 18:39 | 46.67320 | -107.99713 | 41133 ft | 462 kts | 44° |
| 2026-05-05 18:39 | 46.71672 | -107.92805 | 41138 ft | 463 kts | 44° |
| 2026-05-05 18:40 | 46.76025 | -107.85880 | 41133 ft | 463 kts | 44° |
| 2026-05-05 18:40 | 46.80380 | -107.78933 | 41142 ft | 464 kts | 44° |
| 2026-05-05 18:41 | 46.84732 | -107.71973 | 41142 ft | 464 kts | 44° |
| 2026-05-05 18:41 | 46.89085 | -107.64993 | 41146 ft | 465 kts | 44° |
| 2026-05-05 18:42 | 46.93432 | -107.58004 | 41147 ft | 465 kts | 44° |
| 2026-05-05 18:42 | 46.97756 | -107.51035 | 41153 ft | 465 kts | 44° |
| 2026-05-05 18:43 | 47.02102 | -107.44012 | 41160 ft | 465 kts | 44° |
| 2026-05-05 18:43 | 47.06445 | -107.36976 | 41163 ft | 466 kts | 44° |
| 2026-05-05 18:44 | 47.10796 | -107.29908 | 41159 ft | 466 kts | 44° |
| 2026-05-05 18:44 | 47.15139 | -107.22834 | 41152 ft | 466 kts | 44° |
| 2026-05-05 18:45 | 47.19476 | -107.15752 | 41138 ft | 466 kts | 45° |
| 2026-05-05 18:45 | 47.23811 | -107.08652 | 41134 ft | 466 kts | 45° |
| 2026-05-05 18:46 | 47.28144 | -107.01539 | 41129 ft | 466 kts | 45° |
| 2026-05-05 18:46 | 47.32472 | -106.94416 | 41131 ft | 467 kts | 45° |
| 2026-05-05 18:47 | 47.36648 | -106.87077 | 41121 ft | 470 kts | 52° |
| 2026-05-05 18:47 | 47.39720 | -106.78516 | 41136 ft | 475 kts | 64° |
| 2026-05-05 18:48 | 47.42387 | -106.69614 | 41149 ft | 475 kts | 63° |
| 2026-05-05 18:48 | 47.45027 | -106.60744 | 41159 ft | 475 kts | 63° |
| 2026-05-05 18:49 | 47.47688 | -106.51810 | 41170 ft | 475 kts | 63° |
| 2026-05-05 18:49 | 47.50337 | -106.42867 | 41173 ft | 475 kts | 63° |
| 2026-05-05 18:50 | 47.52981 | -106.33916 | 41174 ft | 475 kts | 63° |
| 2026-05-05 18:50 | 47.55622 | -106.24943 | 41174 ft | 475 kts | 63° |
| 2026-05-05 18:51 | 47.58252 | -106.15974 | 41171 ft | 475 kts | 63° |
| 2026-05-05 18:51 | 47.60880 | -106.06977 | 41173 ft | 475 kts | 63° |
| 2026-05-05 18:52 | 47.63500 | -105.97974 | 41165 ft | 476 kts | 63° |
| 2026-05-05 18:52 | 47.66112 | -105.88967 | 41165 ft | 476 kts | 63° |
| 2026-05-05 18:53 | 47.68723 | -105.79929 | 41154 ft | 476 kts | 63° |
| 2026-05-05 18:53 | 47.71323 | -105.70897 | 41152 ft | 476 kts | 64° |
| 2026-05-05 18:54 | 47.73917 | -105.61850 | 41145 ft | 476 kts | 64° |
| 2026-05-05 18:54 | 47.76508 | -105.52781 | 41147 ft | 476 kts | 64° |
| 2026-05-05 18:55 | 47.79088 | -105.43718 | 41150 ft | 477 kts | 64° |
| 2026-05-05 18:55 | 47.81667 | -105.34623 | 41145 ft | 477 kts | 64° |
| 2026-05-05 18:56 | 47.84238 | -105.25521 | 41143 ft | 477 kts | 64° |
| 2026-05-05 18:56 | 47.86801 | -105.16412 | 41146 ft | 477 kts | 64° |
| 2026-05-05 18:57 | 47.89344 | -105.07342 | 41145 ft | 478 kts | 64° |
| 2026-05-05 18:57 | 47.91895 | -104.98207 | 41145 ft | 478 kts | 64° |
| 2026-05-05 18:58 | 47.94441 | -104.89056 | 41145 ft | 478 kts | 64° |
| 2026-05-05 18:58 | 47.96982 | -104.79886 | 41132 ft | 478 kts | 64° |
| 2026-05-05 18:59 | 47.99518 | -104.70703 | 41130 ft | 478 kts | 64° |
| 2026-05-05 18:59 | 48.02041 | -104.61527 | 41131 ft | 478 kts | 65° |
| 2026-05-05 19:00 | 48.04560 | -104.52333 | 41134 ft | 478 kts | 65° |
| 2026-05-05 19:00 | 48.07070 | -104.43134 | 41131 ft | 478 kts | 65° |
| 2026-05-05 19:01 | 48.09575 | -104.33919 | 41129 ft | 478 kts | 65° |
| 2026-05-05 19:01 | 48.12074 | -104.24688 | 41132 ft | 478 kts | 65° |
| 2026-05-05 19:02 | 48.14559 | -104.15474 | 41106 ft | 479 kts | 65° |
| 2026-05-05 19:02 | 48.17043 | -104.06227 | 41088 ft | 479 kts | 65° |
| 2026-05-05 19:03 | 48.19520 | -103.96968 | 41073 ft | 479 kts | 65° |
| 2026-05-05 19:03 | 48.21987 | -103.87711 | 41055 ft | 479 kts | 65° |
| 2026-05-05 19:04 | 48.24414 | -103.78406 | 41050 ft | 479 kts | 68° |
| 2026-05-05 19:04 | 48.25867 | -103.68634 | 41048 ft | 484 kts | 82° |
| 2026-05-05 19:05 | 48.26626 | -103.58600 | 41057 ft | 483 kts | 81° |
| 2026-05-05 19:05 | 48.27398 | -103.48477 | 39866 ft | 503 kts | 81° |
| 2026-05-05 19:06 | 48.27792 | -103.43273 | 38811 ft | 509 kts | 81° |
| 2026-05-05 19:06 | 48.28193 | -103.37952 | 37501 ft | 504 kts | 81° |
| 2026-05-05 19:06 | 48.28579 | -103.32809 | 36291 ft | 501 kts | 81° |
| 2026-05-05 19:06 | 48.28841 | -103.29301 | 35518 ft | 505 kts | 81° |
| 2026-05-05 19:07 | 48.29233 | -103.24031 | 34401 ft | 507 kts | 81° |
| 2026-05-05 19:07 | 48.29617 | -103.18795 | 33123 ft | 503 kts | 81° |
| 2026-05-05 19:07 | 48.30127 | -103.11855 | 31432 ft | 507 kts | 81° |
| 2026-05-05 19:07 | 48.30510 | -103.06583 | 30223 ft | 509 kts | 81° |
| 2026-05-05 19:08 | 48.30891 | -103.01292 | 28798 ft | 511 kts | 81° |
| 2026-05-05 19:08 | 48.31272 | -102.95983 | 27436 ft | 511 kts | 81° |
| 2026-05-05 19:08 | 48.31648 | -102.90696 | 26121 ft | 509 kts | 81° |
| 2026-05-05 19:08 | 48.31902 | -102.87114 | 25259 ft | 508 kts | 81° |
| 2026-05-05 19:09 | 48.32272 | -102.81853 | 24036 ft | 506 kts | 81° |
| 2026-05-05 19:09 | 48.32641 | -102.76599 | 22676 ft | 508 kts | 81° |
| 2026-05-05 19:09 | 48.33012 | -102.71277 | 21321 ft | 517 kts | 81° |
| 2026-05-05 19:09 | 48.33380 | -102.65931 | 20045 ft | 525 kts | 81° |
| 2026-05-05 19:10 | 48.33760 | -102.60372 | 18784 ft | 530 kts | 81° |
| 2026-05-05 19:10 | 48.34132 | -102.54907 | 17464 ft | 534 kts | 82° |
| 2026-05-05 19:10 | 48.34509 | -102.49339 | 16197 ft | 536 kts | 82° |
| 2026-05-05 19:10 | 48.34879 | -102.43807 | 15434 ft | 528 kts | 82° |
| 2026-05-05 19:11 | 48.35243 | -102.38349 | 14698 ft | 520 kts | 82° |
| 2026-05-05 19:11 | 48.35599 | -102.32982 | 13983 ft | 512 kts | 82° |
| 2026-05-05 19:11 | 48.35943 | -102.27725 | 13698 ft | 503 kts | 82° |
| 2026-05-05 19:11 | 48.36284 | -102.22514 | 13427 ft | 498 kts | 82° |
| 2026-05-05 19:12 | 48.36617 | -102.17355 | 13161 ft | 494 kts | 82° |
| 2026-05-05 19:12 | 48.36948 | -102.12217 | 12891 ft | 491 kts | 82° |
| 2026-05-05 19:12 | 48.37273 | -102.07128 | 12610 ft | 488 kts | 82° |
| 2026-05-05 19:12 | 48.37593 | -102.02062 | 12357 ft | 485 kts | 82° |
| 2026-05-05 19:13 | 48.37911 | -101.97034 | 12094 ft | 482 kts | 82° |
| 2026-05-05 19:13 | 48.38224 | -101.92022 | 11829 ft | 480 kts | 82° |
| 2026-05-05 19:13 | 48.38533 | -101.87030 | 11560 ft | 478 kts | 82° |
| 2026-05-05 19:13 | 48.38840 | -101.82058 | 11296 ft | 476 kts | 82° |
| 2026-05-05 19:14 | 48.39140 | -101.77131 | 11043 ft | 466 kts | 82° |
| 2026-05-05 19:14 | 48.39430 | -101.72351 | 10781 ft | 454 kts | 82° |
| 2026-05-05 19:14 | 48.39713 | -101.67684 | 10509 ft | 443 kts | 82° |
| 2026-05-05 19:14 | 48.40010 | -101.63130 | 10408 ft | 426 kts | 81° |
| 2026-05-05 19:15 | 48.40339 | -101.58992 | 10247 ft | 374 kts | 79° |
| 2026-05-05 19:15 | 48.40658 | -101.55332 | 9669 ft | 329 kts | 79° |
| 2026-05-05 19:15 | 48.40948 | -101.52198 | 8321 ft | 284 kts | 77° |
| 2026-05-05 19:15 | 48.41230 | -101.49385 | 7042 ft | 260 kts | 76° |
| 2026-05-05 19:16 | 48.41770 | -101.46954 | 6206 ft | 224 kts | 52° |
| 2026-05-05 19:16 | 48.42579 | -101.45298 | 5866 ft | 175 kts | 38° |
| 2026-05-05 19:16 | 48.43352 | -101.44020 | 5476 ft | 158 kts | 41° |
| 2026-05-05 19:16 | 48.44048 | -101.42823 | 5149 ft | 152 kts | 42° |
| 2026-05-05 19:17 | 48.44708 | -101.41722 | 4948 ft | 142 kts | 40° |
| 2026-05-05 19:17 | 48.45385 | -101.40656 | 4727 ft | 139 kts | 38° |
| 2026-05-05 19:17 | 48.46058 | -101.39612 | 4508 ft | 143 kts | 39° |
| 2026-05-05 19:17 | 48.46566 | -101.38244 | 4374 ft | 158 kts | 66° |
| 2026-05-05 19:18 | 48.46543 | -101.36565 | 4210 ft | 168 kts | 101° |
| 2026-05-05 19:18 | 48.45906 | -101.35052 | 3983 ft | 174 kts | 129° |
| 2026-05-05 19:18 | 48.45152 | -101.33703 | 3817 ft | 163 kts | 126° |
| 2026-05-05 19:18 | 48.44431 | -101.32389 | 3603 ft | 162 kts | 126° |
| 2026-05-05 19:19 | 48.43720 | -101.31091 | 3477 ft | 159 kts | 126° |
| 2026-05-05 19:19 | 48.43028 | -101.29792 | 3438 ft | 158 kts | 124° |
| 2026-05-05 19:19 | 48.42370 | -101.28450 | 3361 ft | 160 kts | 121° |
| 2026-05-05 19:19 | 48.41718 | -101.27082 | 3260 ft | 162 kts | 121° |
| 2026-05-05 19:20 | 48.40919 | -101.25888 | 3264 ft | 168 kts | 149° |
| 2026-05-05 19:20 | 48.39796 | -101.25686 | 3240 ft | 168 kts | 200° |
| 2026-05-05 19:20 | 48.38838 | -101.26581 | 3303 ft | 151 kts | 227° |
| 2026-05-05 19:20 | 48.38302 | -101.27814 | 3143 ft | 135 kts | 267° |
| 2026-05-05 19:21 | 48.38517 | -101.29181 | 2837 ft | 133 kts | 302° |
| 2026-05-05 19:21 | 48.39021 | -101.30362 | 2367 ft | 134 kts | 309° |
| 2026-05-05 19:21 | 48.39539 | -101.31491 | 1987 ft | 130 kts | 310° |
| 2026-05-05 19:21 | 48.40056 | -101.32594 | 1750 ft | 126 kts | 313° |
| 2026-05-05 19:22 | 48.40545 | -101.33629 | 1677 ft | 117 kts | 314° |
| 2026-05-05 19:22 | 48.40965 | -101.34490 | 1666 ft | 89 kts | 305° |
| 2026-05-05 19:22 | 48.41246 | -101.35089 | 1670 ft | 47 kts | 306° |
| 2026-05-05 19:22 | 48.41425 | -101.35480 | 1670 ft | 33 kts | 304° |
| 2026-05-05 19:23 | 48.41560 | -101.35770 | 1677 ft | 35 kts | 305° |
| 2026-05-05 19:23 | 48.41700 | -101.36060 | 1679 ft | 33 kts | 305° |
| 2026-05-05 19:23 | 48.41834 | -101.36349 | 1679 ft | 34 kts | 305° |
| 2026-05-05 19:23 | 48.41929 | -101.36555 | 1682 ft | 13 kts | 304° |
| 2026-05-05 19:24 | 48.41989 | -101.36599 | 1686 ft | 8 kts | 2° |
| 2026-05-05 19:24 | 48.42043 | -101.36561 | 1684 ft | 10 kts | 30° |
| 2026-05-05 19:24 | 48.42099 | -101.36512 | 1681 ft | 0 kts | 30° |